<?xml version="1.0" encoding="UTF-8" standalone="no" ?>
<gpx xmlns="http://www.topografix.com/GPX/1/1" xmlns:xsi="http://www.w3.org/2001/XMLSchema-instance" xsi:schemaLocation="http://www.topografix.com/GPX/1/1 http://www.topografix.com/GPX/1/1/gpx.xsd" version="1.1" creator="VisuGPX - https://www.visugpx.com">
  <metadata>
    <name>Chapelle de Rousse</name>
    <desc><![CDATA[Une belle randonnée dans le Jurançonnais, avec une belle vue sur les Pyrénées, et notamment le Pic du Midi d\'Ossau.]]></desc>
  </metadata>
  <trk>
    <name><![CDATA[Tracé actuel: 29 JAN 2013 14:26]]></name>
    <trkseg>
      <trkpt lat="43.26085" lon="-0.42236">
        <ele>264.5</ele>
        <time>2013-01-29T13:26:09Z</time>
      </trkpt>
      <trkpt lat="43.2608" lon="-0.42229">
        <ele>303.43</ele>
        <time>2013-01-29T13:26:37Z</time>
      </trkpt>
      <trkpt lat="43.26074" lon="-0.4222">
        <ele>312.57</ele>
        <time>2013-01-29T13:26:50Z</time>
      </trkpt>
      <trkpt lat="43.26067" lon="-0.4221">
        <ele>317.37</ele>
        <time>2013-01-29T13:27:02Z</time>
      </trkpt>
      <trkpt lat="43.26061" lon="-0.422">
        <ele>322.18</ele>
        <time>2013-01-29T13:27:13Z</time>
      </trkpt>
      <trkpt lat="43.26054" lon="-0.42191">
        <ele>325.06</ele>
        <time>2013-01-29T13:27:23Z</time>
      </trkpt>
      <trkpt lat="43.26046" lon="-0.42184">
        <ele>326.99</ele>
        <time>2013-01-29T13:27:33Z</time>
      </trkpt>
      <trkpt lat="43.26035" lon="-0.42181">
        <ele>327.95</ele>
        <time>2013-01-29T13:27:44Z</time>
      </trkpt>
      <trkpt lat="43.26026" lon="-0.4218">
        <ele>328.91</ele>
        <time>2013-01-29T13:27:53Z</time>
      </trkpt>
      <trkpt lat="43.26016" lon="-0.4218">
        <ele>329.39</ele>
        <time>2013-01-29T13:28:02Z</time>
      </trkpt>
      <trkpt lat="43.26006" lon="-0.42181">
        <ele>329.87</ele>
        <time>2013-01-29T13:28:11Z</time>
      </trkpt>
      <trkpt lat="43.25995" lon="-0.42182">
        <ele>329.87</ele>
        <time>2013-01-29T13:28:20Z</time>
      </trkpt>
      <trkpt lat="43.25986" lon="-0.42185">
        <ele>329.87</ele>
        <time>2013-01-29T13:28:31Z</time>
      </trkpt>
      <trkpt lat="43.25977" lon="-0.42185">
        <ele>330.35</ele>
        <time>2013-01-29T13:28:45Z</time>
      </trkpt>
      <trkpt lat="43.25968" lon="-0.42186">
        <ele>330.83</ele>
        <time>2013-01-29T13:28:56Z</time>
      </trkpt>
      <trkpt lat="43.25958" lon="-0.42187">
        <ele>330.83</ele>
        <time>2013-01-29T13:29:05Z</time>
      </trkpt>
      <trkpt lat="43.25949" lon="-0.42188">
        <ele>330.83</ele>
        <time>2013-01-29T13:29:15Z</time>
      </trkpt>
      <trkpt lat="43.25939" lon="-0.42189">
        <ele>331.31</ele>
        <time>2013-01-29T13:29:25Z</time>
      </trkpt>
      <trkpt lat="43.25929" lon="-0.4219">
        <ele>331.31</ele>
        <time>2013-01-29T13:29:36Z</time>
      </trkpt>
      <trkpt lat="43.2592" lon="-0.42191">
        <ele>331.79</ele>
        <time>2013-01-29T13:29:44Z</time>
      </trkpt>
      <trkpt lat="43.2591" lon="-0.42191">
        <ele>332.27</ele>
        <time>2013-01-29T13:29:52Z</time>
      </trkpt>
      <trkpt lat="43.259" lon="-0.42189">
        <ele>331.79</ele>
        <time>2013-01-29T13:30:01Z</time>
      </trkpt>
      <trkpt lat="43.25892" lon="-0.42184">
        <ele>331.79</ele>
        <time>2013-01-29T13:30:09Z</time>
      </trkpt>
      <trkpt lat="43.25883" lon="-0.42177">
        <ele>331.79</ele>
        <time>2013-01-29T13:30:19Z</time>
      </trkpt>
      <trkpt lat="43.25874" lon="-0.42171">
        <ele>331.79</ele>
        <time>2013-01-29T13:30:27Z</time>
      </trkpt>
      <trkpt lat="43.25864" lon="-0.42165">
        <ele>332.27</ele>
        <time>2013-01-29T13:30:37Z</time>
      </trkpt>
      <trkpt lat="43.25854" lon="-0.42157">
        <ele>332.75</ele>
        <time>2013-01-29T13:30:46Z</time>
      </trkpt>
      <trkpt lat="43.25843" lon="-0.42149">
        <ele>332.75</ele>
        <time>2013-01-29T13:30:55Z</time>
      </trkpt>
      <trkpt lat="43.25834" lon="-0.42144">
        <ele>333.23</ele>
        <time>2013-01-29T13:31:05Z</time>
      </trkpt>
      <trkpt lat="43.25824" lon="-0.42138">
        <ele>334.68</ele>
        <time>2013-01-29T13:31:15Z</time>
      </trkpt>
      <trkpt lat="43.25815" lon="-0.42133">
        <ele>334.68</ele>
        <time>2013-01-29T13:31:23Z</time>
      </trkpt>
      <trkpt lat="43.25806" lon="-0.42126">
        <ele>335.16</ele>
        <time>2013-01-29T13:31:32Z</time>
      </trkpt>
      <trkpt lat="43.25801" lon="-0.42118">
        <ele>335.64</ele>
        <time>2013-01-29T13:32:06Z</time>
      </trkpt>
      <trkpt lat="43.25793" lon="-0.42109">
        <ele>335.16</ele>
        <time>2013-01-29T13:32:14Z</time>
      </trkpt>
      <trkpt lat="43.25786" lon="-0.42101">
        <ele>334.68</ele>
        <time>2013-01-29T13:32:28Z</time>
      </trkpt>
      <trkpt lat="43.25778" lon="-0.42092">
        <ele>334.2</ele>
        <time>2013-01-29T13:32:36Z</time>
      </trkpt>
      <trkpt lat="43.2577" lon="-0.42085">
        <ele>332.27</ele>
        <time>2013-01-29T13:32:43Z</time>
      </trkpt>
      <trkpt lat="43.25761" lon="-0.4208">
        <ele>333.23</ele>
        <time>2013-01-29T13:32:50Z</time>
      </trkpt>
      <trkpt lat="43.25753" lon="-0.42072">
        <ele>330.35</ele>
        <time>2013-01-29T13:32:58Z</time>
      </trkpt>
      <trkpt lat="43.25747" lon="-0.42063">
        <ele>333.23</ele>
        <time>2013-01-29T13:33:05Z</time>
      </trkpt>
      <trkpt lat="43.25739" lon="-0.42055">
        <ele>333.23</ele>
        <time>2013-01-29T13:33:12Z</time>
      </trkpt>
      <trkpt lat="43.25732" lon="-0.42047">
        <ele>333.23</ele>
        <time>2013-01-29T13:33:19Z</time>
      </trkpt>
      <trkpt lat="43.25723" lon="-0.42038">
        <ele>333.23</ele>
        <time>2013-01-29T13:33:27Z</time>
      </trkpt>
      <trkpt lat="43.25715" lon="-0.4203">
        <ele>332.75</ele>
        <time>2013-01-29T13:33:35Z</time>
      </trkpt>
      <trkpt lat="43.25706" lon="-0.42021">
        <ele>332.75</ele>
        <time>2013-01-29T13:33:43Z</time>
      </trkpt>
      <trkpt lat="43.25698" lon="-0.42011">
        <ele>332.75</ele>
        <time>2013-01-29T13:33:52Z</time>
      </trkpt>
      <trkpt lat="43.25691" lon="-0.42004">
        <ele>332.27</ele>
        <time>2013-01-29T13:34:00Z</time>
      </trkpt>
      <trkpt lat="43.25682" lon="-0.41995">
        <ele>331.79</ele>
        <time>2013-01-29T13:34:09Z</time>
      </trkpt>
      <trkpt lat="43.25672" lon="-0.41988">
        <ele>331.79</ele>
        <time>2013-01-29T13:34:19Z</time>
      </trkpt>
      <trkpt lat="43.25662" lon="-0.41985">
        <ele>330.83</ele>
        <time>2013-01-29T13:34:29Z</time>
      </trkpt>
      <trkpt lat="43.25653" lon="-0.41977">
        <ele>329.87</ele>
        <time>2013-01-29T13:34:39Z</time>
      </trkpt>
      <trkpt lat="43.25645" lon="-0.41968">
        <ele>329.39</ele>
        <time>2013-01-29T13:34:49Z</time>
      </trkpt>
      <trkpt lat="43.25638" lon="-0.4196">
        <ele>328.43</ele>
        <time>2013-01-29T13:34:58Z</time>
      </trkpt>
      <trkpt lat="43.25629" lon="-0.41952">
        <ele>327.47</ele>
        <time>2013-01-29T13:35:08Z</time>
      </trkpt>
      <trkpt lat="43.25621" lon="-0.41943">
        <ele>326.5</ele>
        <time>2013-01-29T13:35:17Z</time>
      </trkpt>
      <trkpt lat="43.25612" lon="-0.41935">
        <ele>326.02</ele>
        <time>2013-01-29T13:35:26Z</time>
      </trkpt>
      <trkpt lat="43.25604" lon="-0.41927">
        <ele>325.06</ele>
        <time>2013-01-29T13:35:35Z</time>
      </trkpt>
      <trkpt lat="43.25595" lon="-0.4192">
        <ele>324.1</ele>
        <time>2013-01-29T13:35:44Z</time>
      </trkpt>
      <trkpt lat="43.25586" lon="-0.41913">
        <ele>323.14</ele>
        <time>2013-01-29T13:35:53Z</time>
      </trkpt>
      <trkpt lat="43.25577" lon="-0.41905">
        <ele>322.66</ele>
        <time>2013-01-29T13:36:02Z</time>
      </trkpt>
      <trkpt lat="43.25568" lon="-0.41898">
        <ele>322.18</ele>
        <time>2013-01-29T13:36:11Z</time>
      </trkpt>
      <trkpt lat="43.25559" lon="-0.41891">
        <ele>321.22</ele>
        <time>2013-01-29T13:36:20Z</time>
      </trkpt>
      <trkpt lat="43.2555" lon="-0.41883">
        <ele>320.26</ele>
        <time>2013-01-29T13:36:28Z</time>
      </trkpt>
      <trkpt lat="43.25543" lon="-0.41877">
        <ele>320.26</ele>
        <time>2013-01-29T13:36:36Z</time>
      </trkpt>
      <trkpt lat="43.25534" lon="-0.41873">
        <ele>320.26</ele>
        <time>2013-01-29T13:36:44Z</time>
      </trkpt>
      <trkpt lat="43.25526" lon="-0.4187">
        <ele>319.3</ele>
        <time>2013-01-29T13:36:52Z</time>
      </trkpt>
      <trkpt lat="43.25517" lon="-0.41867">
        <ele>319.78</ele>
        <time>2013-01-29T13:37:00Z</time>
      </trkpt>
      <trkpt lat="43.25508" lon="-0.41862">
        <ele>319.3</ele>
        <time>2013-01-29T13:37:08Z</time>
      </trkpt>
      <trkpt lat="43.25499" lon="-0.41862">
        <ele>318.33</ele>
        <time>2013-01-29T13:37:18Z</time>
      </trkpt>
      <trkpt lat="43.2549" lon="-0.41857">
        <ele>318.81</ele>
        <time>2013-01-29T13:37:27Z</time>
      </trkpt>
      <trkpt lat="43.2548" lon="-0.41849">
        <ele>318.33</ele>
        <time>2013-01-29T13:37:36Z</time>
      </trkpt>
      <trkpt lat="43.25472" lon="-0.41844">
        <ele>318.33</ele>
        <time>2013-01-29T13:37:44Z</time>
      </trkpt>
      <trkpt lat="43.25462" lon="-0.4184">
        <ele>317.85</ele>
        <time>2013-01-29T13:37:53Z</time>
      </trkpt>
      <trkpt lat="43.25453" lon="-0.41835">
        <ele>317.37</ele>
        <time>2013-01-29T13:38:02Z</time>
      </trkpt>
      <trkpt lat="43.25444" lon="-0.4183">
        <ele>317.85</ele>
        <time>2013-01-29T13:38:10Z</time>
      </trkpt>
      <trkpt lat="43.25435" lon="-0.41825">
        <ele>317.37</ele>
        <time>2013-01-29T13:38:19Z</time>
      </trkpt>
      <trkpt lat="43.25425" lon="-0.4182">
        <ele>317.37</ele>
        <time>2013-01-29T13:38:28Z</time>
      </trkpt>
      <trkpt lat="43.25416" lon="-0.41814">
        <ele>317.85</ele>
        <time>2013-01-29T13:38:37Z</time>
      </trkpt>
      <trkpt lat="43.25407" lon="-0.41808">
        <ele>317.85</ele>
        <time>2013-01-29T13:38:46Z</time>
      </trkpt>
      <trkpt lat="43.25399" lon="-0.41801">
        <ele>317.85</ele>
        <time>2013-01-29T13:38:55Z</time>
      </trkpt>
      <trkpt lat="43.25391" lon="-0.41792">
        <ele>318.33</ele>
        <time>2013-01-29T13:39:04Z</time>
      </trkpt>
      <trkpt lat="43.25383" lon="-0.41784">
        <ele>318.81</ele>
        <time>2013-01-29T13:39:14Z</time>
      </trkpt>
      <trkpt lat="43.25375" lon="-0.41778">
        <ele>319.78</ele>
        <time>2013-01-29T13:39:23Z</time>
      </trkpt>
      <trkpt lat="43.25365" lon="-0.41773">
        <ele>320.26</ele>
        <time>2013-01-29T13:39:33Z</time>
      </trkpt>
      <trkpt lat="43.25356" lon="-0.41767">
        <ele>320.74</ele>
        <time>2013-01-29T13:39:42Z</time>
      </trkpt>
      <trkpt lat="43.25347" lon="-0.41761">
        <ele>321.7</ele>
        <time>2013-01-29T13:39:51Z</time>
      </trkpt>
      <trkpt lat="43.25338" lon="-0.41754">
        <ele>322.18</ele>
        <time>2013-01-29T13:40:00Z</time>
      </trkpt>
      <trkpt lat="43.2533" lon="-0.4175">
        <ele>323.14</ele>
        <time>2013-01-29T13:40:09Z</time>
      </trkpt>
      <trkpt lat="43.2532" lon="-0.41744">
        <ele>324.1</ele>
        <time>2013-01-29T13:40:19Z</time>
      </trkpt>
      <trkpt lat="43.25312" lon="-0.41739">
        <ele>324.1</ele>
        <time>2013-01-29T13:40:28Z</time>
      </trkpt>
      <trkpt lat="43.25303" lon="-0.41732">
        <ele>325.54</ele>
        <time>2013-01-29T13:40:37Z</time>
      </trkpt>
      <trkpt lat="43.25294" lon="-0.41725">
        <ele>326.02</ele>
        <time>2013-01-29T13:40:47Z</time>
      </trkpt>
      <trkpt lat="43.25285" lon="-0.41718">
        <ele>326.5</ele>
        <time>2013-01-29T13:40:57Z</time>
      </trkpt>
      <trkpt lat="43.25276" lon="-0.41709">
        <ele>327.47</ele>
        <time>2013-01-29T13:41:06Z</time>
      </trkpt>
      <trkpt lat="43.25268" lon="-0.41702">
        <ele>327.95</ele>
        <time>2013-01-29T13:41:15Z</time>
      </trkpt>
      <trkpt lat="43.2526" lon="-0.41695">
        <ele>328.43</ele>
        <time>2013-01-29T13:41:24Z</time>
      </trkpt>
      <trkpt lat="43.25251" lon="-0.41688">
        <ele>328.91</ele>
        <time>2013-01-29T13:41:33Z</time>
      </trkpt>
      <trkpt lat="43.25245" lon="-0.41678">
        <ele>328.91</ele>
        <time>2013-01-29T13:41:41Z</time>
      </trkpt>
      <trkpt lat="43.25239" lon="-0.41668">
        <ele>329.39</ele>
        <time>2013-01-29T13:41:51Z</time>
      </trkpt>
      <trkpt lat="43.25233" lon="-0.41657">
        <ele>329.87</ele>
        <time>2013-01-29T13:42:00Z</time>
      </trkpt>
      <trkpt lat="43.25228" lon="-0.41647">
        <ele>329.87</ele>
        <time>2013-01-29T13:42:08Z</time>
      </trkpt>
      <trkpt lat="43.25223" lon="-0.41637">
        <ele>329.87</ele>
        <time>2013-01-29T13:42:16Z</time>
      </trkpt>
      <trkpt lat="43.25219" lon="-0.41626">
        <ele>330.35</ele>
        <time>2013-01-29T13:42:24Z</time>
      </trkpt>
      <trkpt lat="43.25215" lon="-0.41614">
        <ele>330.83</ele>
        <time>2013-01-29T13:42:33Z</time>
      </trkpt>
      <trkpt lat="43.25209" lon="-0.41602">
        <ele>330.83</ele>
        <time>2013-01-29T13:42:42Z</time>
      </trkpt>
      <trkpt lat="43.25204" lon="-0.41591">
        <ele>331.79</ele>
        <time>2013-01-29T13:42:51Z</time>
      </trkpt>
      <trkpt lat="43.25199" lon="-0.4158">
        <ele>331.79</ele>
        <time>2013-01-29T13:43:00Z</time>
      </trkpt>
      <trkpt lat="43.25195" lon="-0.41567">
        <ele>332.75</ele>
        <time>2013-01-29T13:43:10Z</time>
      </trkpt>
      <trkpt lat="43.2519" lon="-0.41555">
        <ele>332.27</ele>
        <time>2013-01-29T13:43:20Z</time>
      </trkpt>
      <trkpt lat="43.25184" lon="-0.41543">
        <ele>333.23</ele>
        <time>2013-01-29T13:43:29Z</time>
      </trkpt>
      <trkpt lat="43.25179" lon="-0.41531">
        <ele>333.23</ele>
        <time>2013-01-29T13:43:38Z</time>
      </trkpt>
      <trkpt lat="43.25174" lon="-0.41519">
        <ele>333.71</ele>
        <time>2013-01-29T13:43:47Z</time>
      </trkpt>
      <trkpt lat="43.25169" lon="-0.41507">
        <ele>334.68</ele>
        <time>2013-01-29T13:43:57Z</time>
      </trkpt>
      <trkpt lat="43.25164" lon="-0.41496">
        <ele>335.16</ele>
        <time>2013-01-29T13:44:07Z</time>
      </trkpt>
      <trkpt lat="43.25159" lon="-0.41483">
        <ele>335.64</ele>
        <time>2013-01-29T13:44:17Z</time>
      </trkpt>
      <trkpt lat="43.25154" lon="-0.41472">
        <ele>336.6</ele>
        <time>2013-01-29T13:44:27Z</time>
      </trkpt>
      <trkpt lat="43.25149" lon="-0.41463">
        <ele>337.56</ele>
        <time>2013-01-29T13:44:44Z</time>
      </trkpt>
      <trkpt lat="43.25145" lon="-0.41451">
        <ele>338.04</ele>
        <time>2013-01-29T13:44:56Z</time>
      </trkpt>
      <trkpt lat="43.25142" lon="-0.41438">
        <ele>339.48</ele>
        <time>2013-01-29T13:45:07Z</time>
      </trkpt>
      <trkpt lat="43.25139" lon="-0.41424">
        <ele>340.44</ele>
        <time>2013-01-29T13:45:19Z</time>
      </trkpt>
      <trkpt lat="43.25135" lon="-0.41411">
        <ele>341.41</ele>
        <time>2013-01-29T13:45:31Z</time>
      </trkpt>
      <trkpt lat="43.2513" lon="-0.41397">
        <ele>342.85</ele>
        <time>2013-01-29T13:45:46Z</time>
      </trkpt>
      <trkpt lat="43.25125" lon="-0.41382">
        <ele>343.81</ele>
        <time>2013-01-29T13:45:58Z</time>
      </trkpt>
      <trkpt lat="43.25122" lon="-0.41368">
        <ele>344.77</ele>
        <time>2013-01-29T13:46:09Z</time>
      </trkpt>
      <trkpt lat="43.25119" lon="-0.41355">
        <ele>345.73</ele>
        <time>2013-01-29T13:46:20Z</time>
      </trkpt>
      <trkpt lat="43.25116" lon="-0.4134">
        <ele>347.17</ele>
        <time>2013-01-29T13:46:31Z</time>
      </trkpt>
      <trkpt lat="43.25113" lon="-0.41327">
        <ele>347.65</ele>
        <time>2013-01-29T13:46:41Z</time>
      </trkpt>
      <trkpt lat="43.2511" lon="-0.41314">
        <ele>349.1</ele>
        <time>2013-01-29T13:46:51Z</time>
      </trkpt>
      <trkpt lat="43.25106" lon="-0.41303">
        <ele>349.58</ele>
        <time>2013-01-29T13:47:01Z</time>
      </trkpt>
      <trkpt lat="43.25104" lon="-0.4129">
        <ele>350.54</ele>
        <time>2013-01-29T13:47:12Z</time>
      </trkpt>
      <trkpt lat="43.25102" lon="-0.41278">
        <ele>351.02</ele>
        <time>2013-01-29T13:47:21Z</time>
      </trkpt>
      <trkpt lat="43.25099" lon="-0.41266">
        <ele>351.02</ele>
        <time>2013-01-29T13:47:30Z</time>
      </trkpt>
      <trkpt lat="43.25096" lon="-0.41253">
        <ele>351.98</ele>
        <time>2013-01-29T13:47:40Z</time>
      </trkpt>
      <trkpt lat="43.25091" lon="-0.41242">
        <ele>352.46</ele>
        <time>2013-01-29T13:47:49Z</time>
      </trkpt>
      <trkpt lat="43.25083" lon="-0.41233">
        <ele>352.94</ele>
        <time>2013-01-29T13:47:58Z</time>
      </trkpt>
      <trkpt lat="43.25076" lon="-0.41223">
        <ele>353.42</ele>
        <time>2013-01-29T13:48:07Z</time>
      </trkpt>
      <trkpt lat="43.25069" lon="-0.41214">
        <ele>353.9</ele>
        <time>2013-01-29T13:48:16Z</time>
      </trkpt>
      <trkpt lat="43.25062" lon="-0.41206">
        <ele>353.9</ele>
        <time>2013-01-29T13:48:25Z</time>
      </trkpt>
      <trkpt lat="43.25055" lon="-0.41197">
        <ele>352.94</ele>
        <time>2013-01-29T13:48:33Z</time>
      </trkpt>
      <trkpt lat="43.25048" lon="-0.41189">
        <ele>352.94</ele>
        <time>2013-01-29T13:48:42Z</time>
      </trkpt>
      <trkpt lat="43.25041" lon="-0.41181">
        <ele>352.46</ele>
        <time>2013-01-29T13:48:52Z</time>
      </trkpt>
      <trkpt lat="43.25035" lon="-0.41171">
        <ele>351.98</ele>
        <time>2013-01-29T13:49:01Z</time>
      </trkpt>
      <trkpt lat="43.25028" lon="-0.41162">
        <ele>352.46</ele>
        <time>2013-01-29T13:49:10Z</time>
      </trkpt>
      <trkpt lat="43.25022" lon="-0.41152">
        <ele>351.98</ele>
        <time>2013-01-29T13:49:18Z</time>
      </trkpt>
      <trkpt lat="43.25016" lon="-0.41142">
        <ele>351.98</ele>
        <time>2013-01-29T13:49:26Z</time>
      </trkpt>
      <trkpt lat="43.2501" lon="-0.41134">
        <ele>351.98</ele>
        <time>2013-01-29T13:49:34Z</time>
      </trkpt>
      <trkpt lat="43.25004" lon="-0.41124">
        <ele>351.98</ele>
        <time>2013-01-29T13:49:42Z</time>
      </trkpt>
      <trkpt lat="43.24999" lon="-0.41115">
        <ele>351.98</ele>
        <time>2013-01-29T13:49:50Z</time>
      </trkpt>
      <trkpt lat="43.24992" lon="-0.41104">
        <ele>351.98</ele>
        <time>2013-01-29T13:49:59Z</time>
      </trkpt>
      <trkpt lat="43.24987" lon="-0.41094">
        <ele>352.46</ele>
        <time>2013-01-29T13:50:09Z</time>
      </trkpt>
      <trkpt lat="43.2498" lon="-0.41086">
        <ele>352.94</ele>
        <time>2013-01-29T13:51:04Z</time>
      </trkpt>
      <trkpt lat="43.24973" lon="-0.41075">
        <ele>352.94</ele>
        <time>2013-01-29T13:51:12Z</time>
      </trkpt>
      <trkpt lat="43.24967" lon="-0.41064">
        <ele>352.46</ele>
        <time>2013-01-29T13:51:20Z</time>
      </trkpt>
      <trkpt lat="43.24961" lon="-0.41053">
        <ele>352.46</ele>
        <time>2013-01-29T13:51:28Z</time>
      </trkpt>
      <trkpt lat="43.24956" lon="-0.41044">
        <ele>352.46</ele>
        <time>2013-01-29T13:51:40Z</time>
      </trkpt>
      <trkpt lat="43.24948" lon="-0.41033">
        <ele>352.94</ele>
        <time>2013-01-29T13:51:49Z</time>
      </trkpt>
      <trkpt lat="43.24938" lon="-0.41023">
        <ele>353.42</ele>
        <time>2013-01-29T13:51:59Z</time>
      </trkpt>
      <trkpt lat="43.24933" lon="-0.41012">
        <ele>352.94</ele>
        <time>2013-01-29T13:52:17Z</time>
      </trkpt>
      <trkpt lat="43.24926" lon="-0.41001">
        <ele>353.9</ele>
        <time>2013-01-29T13:52:26Z</time>
      </trkpt>
      <trkpt lat="43.24918" lon="-0.40992">
        <ele>353.42</ele>
        <time>2013-01-29T13:52:50Z</time>
      </trkpt>
      <trkpt lat="43.24908" lon="-0.40985">
        <ele>353.42</ele>
        <time>2013-01-29T13:52:58Z</time>
      </trkpt>
      <trkpt lat="43.24898" lon="-0.40983">
        <ele>352.94</ele>
        <time>2013-01-29T13:53:06Z</time>
      </trkpt>
      <trkpt lat="43.24888" lon="-0.40982">
        <ele>352.46</ele>
        <time>2013-01-29T13:53:14Z</time>
      </trkpt>
      <trkpt lat="43.24877" lon="-0.40984">
        <ele>351.98</ele>
        <time>2013-01-29T13:53:23Z</time>
      </trkpt>
      <trkpt lat="43.24869" lon="-0.40986">
        <ele>351.98</ele>
        <time>2013-01-29T13:53:50Z</time>
      </trkpt>
      <trkpt lat="43.24857" lon="-0.4099">
        <ele>351.98</ele>
        <time>2013-01-29T13:53:58Z</time>
      </trkpt>
      <trkpt lat="43.24846" lon="-0.40989">
        <ele>351.5</ele>
        <time>2013-01-29T13:54:05Z</time>
      </trkpt>
      <trkpt lat="43.24837" lon="-0.40993">
        <ele>351.02</ele>
        <time>2013-01-29T13:54:12Z</time>
      </trkpt>
      <trkpt lat="43.24827" lon="-0.40996">
        <ele>350.54</ele>
        <time>2013-01-29T13:54:18Z</time>
      </trkpt>
      <trkpt lat="43.24818" lon="-0.40997">
        <ele>350.54</ele>
        <time>2013-01-29T13:54:24Z</time>
      </trkpt>
      <trkpt lat="43.24808" lon="-0.41001">
        <ele>350.06</ele>
        <time>2013-01-29T13:54:31Z</time>
      </trkpt>
      <trkpt lat="43.24797" lon="-0.41001">
        <ele>349.58</ele>
        <time>2013-01-29T13:54:38Z</time>
      </trkpt>
      <trkpt lat="43.24787" lon="-0.41002">
        <ele>349.1</ele>
        <time>2013-01-29T13:54:45Z</time>
      </trkpt>
      <trkpt lat="43.24776" lon="-0.41004">
        <ele>348.62</ele>
        <time>2013-01-29T13:54:52Z</time>
      </trkpt>
      <trkpt lat="43.24766" lon="-0.41006">
        <ele>348.62</ele>
        <time>2013-01-29T13:54:59Z</time>
      </trkpt>
      <trkpt lat="43.24756" lon="-0.4101">
        <ele>348.62</ele>
        <time>2013-01-29T13:55:06Z</time>
      </trkpt>
      <trkpt lat="43.24745" lon="-0.41012">
        <ele>349.1</ele>
        <time>2013-01-29T13:55:13Z</time>
      </trkpt>
      <trkpt lat="43.24734" lon="-0.41016">
        <ele>348.62</ele>
        <time>2013-01-29T13:55:20Z</time>
      </trkpt>
      <trkpt lat="43.24724" lon="-0.4102">
        <ele>349.1</ele>
        <time>2013-01-29T13:55:28Z</time>
      </trkpt>
      <trkpt lat="43.24714" lon="-0.41026">
        <ele>350.06</ele>
        <time>2013-01-29T13:55:38Z</time>
      </trkpt>
      <trkpt lat="43.24703" lon="-0.41031">
        <ele>351.5</ele>
        <time>2013-01-29T13:55:47Z</time>
      </trkpt>
      <trkpt lat="43.24693" lon="-0.41036">
        <ele>352.46</ele>
        <time>2013-01-29T13:55:55Z</time>
      </trkpt>
      <trkpt lat="43.24683" lon="-0.41038">
        <ele>352.94</ele>
        <time>2013-01-29T13:56:04Z</time>
      </trkpt>
      <trkpt lat="43.24672" lon="-0.41041">
        <ele>353.9</ele>
        <time>2013-01-29T13:56:13Z</time>
      </trkpt>
      <trkpt lat="43.24662" lon="-0.41044">
        <ele>354.86</ele>
        <time>2013-01-29T13:56:21Z</time>
      </trkpt>
      <trkpt lat="43.24652" lon="-0.41048">
        <ele>355.83</ele>
        <time>2013-01-29T13:56:29Z</time>
      </trkpt>
      <trkpt lat="43.24642" lon="-0.41051">
        <ele>356.79</ele>
        <time>2013-01-29T13:56:38Z</time>
      </trkpt>
      <trkpt lat="43.24632" lon="-0.41054">
        <ele>356.31</ele>
        <time>2013-01-29T13:56:46Z</time>
      </trkpt>
      <trkpt lat="43.24621" lon="-0.41059">
        <ele>355.83</ele>
        <time>2013-01-29T13:56:55Z</time>
      </trkpt>
      <trkpt lat="43.24612" lon="-0.41063">
        <ele>354.86</ele>
        <time>2013-01-29T13:57:02Z</time>
      </trkpt>
      <trkpt lat="43.24604" lon="-0.41069">
        <ele>354.38</ele>
        <time>2013-01-29T13:57:09Z</time>
      </trkpt>
      <trkpt lat="43.24595" lon="-0.41072">
        <ele>353.9</ele>
        <time>2013-01-29T13:57:16Z</time>
      </trkpt>
      <trkpt lat="43.24585" lon="-0.41077">
        <ele>353.42</ele>
        <time>2013-01-29T13:57:24Z</time>
      </trkpt>
      <trkpt lat="43.24576" lon="-0.41081">
        <ele>353.42</ele>
        <time>2013-01-29T13:57:31Z</time>
      </trkpt>
      <trkpt lat="43.24566" lon="-0.41085">
        <ele>353.42</ele>
        <time>2013-01-29T13:57:38Z</time>
      </trkpt>
      <trkpt lat="43.24555" lon="-0.41089">
        <ele>353.42</ele>
        <time>2013-01-29T13:57:45Z</time>
      </trkpt>
      <trkpt lat="43.24545" lon="-0.41092">
        <ele>352.94</ele>
        <time>2013-01-29T13:57:51Z</time>
      </trkpt>
      <trkpt lat="43.24535" lon="-0.41096">
        <ele>353.42</ele>
        <time>2013-01-29T13:57:58Z</time>
      </trkpt>
      <trkpt lat="43.24526" lon="-0.41098">
        <ele>353.9</ele>
        <time>2013-01-29T13:58:07Z</time>
      </trkpt>
      <trkpt lat="43.24517" lon="-0.41101">
        <ele>353.42</ele>
        <time>2013-01-29T13:58:16Z</time>
      </trkpt>
      <trkpt lat="43.24507" lon="-0.41106">
        <ele>353.42</ele>
        <time>2013-01-29T13:58:25Z</time>
      </trkpt>
      <trkpt lat="43.24498" lon="-0.4111">
        <ele>352.94</ele>
        <time>2013-01-29T13:58:34Z</time>
      </trkpt>
      <trkpt lat="43.24488" lon="-0.41114">
        <ele>352.46</ele>
        <time>2013-01-29T13:58:43Z</time>
      </trkpt>
      <trkpt lat="43.24479" lon="-0.41118">
        <ele>351.98</ele>
        <time>2013-01-29T13:58:52Z</time>
      </trkpt>
      <trkpt lat="43.24471" lon="-0.41122">
        <ele>351.98</ele>
        <time>2013-01-29T13:59:01Z</time>
      </trkpt>
      <trkpt lat="43.24461" lon="-0.41126">
        <ele>351.98</ele>
        <time>2013-01-29T13:59:10Z</time>
      </trkpt>
      <trkpt lat="43.24453" lon="-0.4113">
        <ele>351.5</ele>
        <time>2013-01-29T13:59:19Z</time>
      </trkpt>
      <trkpt lat="43.24443" lon="-0.41134">
        <ele>351.5</ele>
        <time>2013-01-29T13:59:28Z</time>
      </trkpt>
      <trkpt lat="43.24433" lon="-0.41138">
        <ele>351.02</ele>
        <time>2013-01-29T13:59:37Z</time>
      </trkpt>
      <trkpt lat="43.24424" lon="-0.41142">
        <ele>351.5</ele>
        <time>2013-01-29T13:59:46Z</time>
      </trkpt>
      <trkpt lat="43.24414" lon="-0.41145">
        <ele>351.5</ele>
        <time>2013-01-29T13:59:55Z</time>
      </trkpt>
      <trkpt lat="43.24405" lon="-0.41148">
        <ele>351.5</ele>
        <time>2013-01-29T14:00:03Z</time>
      </trkpt>
      <trkpt lat="43.24396" lon="-0.41152">
        <ele>352.94</ele>
        <time>2013-01-29T14:00:12Z</time>
      </trkpt>
      <trkpt lat="43.24387" lon="-0.41156">
        <ele>352.94</ele>
        <time>2013-01-29T14:00:21Z</time>
      </trkpt>
      <trkpt lat="43.24378" lon="-0.41161">
        <ele>353.42</ele>
        <time>2013-01-29T14:00:30Z</time>
      </trkpt>
      <trkpt lat="43.24369" lon="-0.41164">
        <ele>353.9</ele>
        <time>2013-01-29T14:00:38Z</time>
      </trkpt>
      <trkpt lat="43.2436" lon="-0.41168">
        <ele>354.38</ele>
        <time>2013-01-29T14:00:46Z</time>
      </trkpt>
      <trkpt lat="43.24351" lon="-0.41171">
        <ele>354.86</ele>
        <time>2013-01-29T14:00:54Z</time>
      </trkpt>
      <trkpt lat="43.24341" lon="-0.41173">
        <ele>355.34</ele>
        <time>2013-01-29T14:01:03Z</time>
      </trkpt>
      <trkpt lat="43.24331" lon="-0.41176">
        <ele>355.83</ele>
        <time>2013-01-29T14:01:12Z</time>
      </trkpt>
      <trkpt lat="43.24321" lon="-0.41177">
        <ele>355.34</ele>
        <time>2013-01-29T14:01:21Z</time>
      </trkpt>
      <trkpt lat="43.24312" lon="-0.41178">
        <ele>355.34</ele>
        <time>2013-01-29T14:01:29Z</time>
      </trkpt>
      <trkpt lat="43.24303" lon="-0.41182">
        <ele>356.31</ele>
        <time>2013-01-29T14:01:40Z</time>
      </trkpt>
      <trkpt lat="43.24295" lon="-0.41183">
        <ele>356.79</ele>
        <time>2013-01-29T14:01:49Z</time>
      </trkpt>
      <trkpt lat="43.24286" lon="-0.41184">
        <ele>356.79</ele>
        <time>2013-01-29T14:01:59Z</time>
      </trkpt>
      <trkpt lat="43.24275" lon="-0.41183">
        <ele>356.79</ele>
        <time>2013-01-29T14:02:08Z</time>
      </trkpt>
      <trkpt lat="43.24265" lon="-0.41182">
        <ele>356.79</ele>
        <time>2013-01-29T14:02:17Z</time>
      </trkpt>
      <trkpt lat="43.24256" lon="-0.41181">
        <ele>357.27</ele>
        <time>2013-01-29T14:02:25Z</time>
      </trkpt>
      <trkpt lat="43.24245" lon="-0.41181">
        <ele>358.23</ele>
        <time>2013-01-29T14:02:34Z</time>
      </trkpt>
      <trkpt lat="43.24235" lon="-0.4118">
        <ele>358.71</ele>
        <time>2013-01-29T14:02:43Z</time>
      </trkpt>
      <trkpt lat="43.24225" lon="-0.4118">
        <ele>359.19</ele>
        <time>2013-01-29T14:02:52Z</time>
      </trkpt>
      <trkpt lat="43.24217" lon="-0.41179">
        <ele>359.19</ele>
        <time>2013-01-29T14:03:05Z</time>
      </trkpt>
      <trkpt lat="43.24208" lon="-0.41181">
        <ele>359.19</ele>
        <time>2013-01-29T14:03:17Z</time>
      </trkpt>
      <trkpt lat="43.24198" lon="-0.41179">
        <ele>360.15</ele>
        <time>2013-01-29T14:03:25Z</time>
      </trkpt>
      <trkpt lat="43.24188" lon="-0.41177">
        <ele>360.15</ele>
        <time>2013-01-29T14:03:35Z</time>
      </trkpt>
      <trkpt lat="43.24179" lon="-0.41174">
        <ele>361.11</ele>
        <time>2013-01-29T14:03:43Z</time>
      </trkpt>
      <trkpt lat="43.2417" lon="-0.4117">
        <ele>360.15</ele>
        <time>2013-01-29T14:03:51Z</time>
      </trkpt>
      <trkpt lat="43.2416" lon="-0.41166">
        <ele>360.63</ele>
        <time>2013-01-29T14:03:59Z</time>
      </trkpt>
      <trkpt lat="43.24151" lon="-0.41162">
        <ele>359.67</ele>
        <time>2013-01-29T14:04:07Z</time>
      </trkpt>
      <trkpt lat="43.24142" lon="-0.41158">
        <ele>359.67</ele>
        <time>2013-01-29T14:04:15Z</time>
      </trkpt>
      <trkpt lat="43.24133" lon="-0.41154">
        <ele>359.67</ele>
        <time>2013-01-29T14:04:23Z</time>
      </trkpt>
      <trkpt lat="43.24123" lon="-0.4115">
        <ele>360.63</ele>
        <time>2013-01-29T14:04:31Z</time>
      </trkpt>
      <trkpt lat="43.24114" lon="-0.41147">
        <ele>360.63</ele>
        <time>2013-01-29T14:04:39Z</time>
      </trkpt>
      <trkpt lat="43.24104" lon="-0.41143">
        <ele>360.63</ele>
        <time>2013-01-29T14:04:50Z</time>
      </trkpt>
      <trkpt lat="43.24094" lon="-0.41138">
        <ele>360.63</ele>
        <time>2013-01-29T14:04:59Z</time>
      </trkpt>
      <trkpt lat="43.24084" lon="-0.41134">
        <ele>361.59</ele>
        <time>2013-01-29T14:05:08Z</time>
      </trkpt>
      <trkpt lat="43.24075" lon="-0.41129">
        <ele>361.59</ele>
        <time>2013-01-29T14:05:17Z</time>
      </trkpt>
      <trkpt lat="43.24066" lon="-0.41124">
        <ele>362.07</ele>
        <time>2013-01-29T14:05:26Z</time>
      </trkpt>
      <trkpt lat="43.24057" lon="-0.41119">
        <ele>362.55</ele>
        <time>2013-01-29T14:05:35Z</time>
      </trkpt>
      <trkpt lat="43.24048" lon="-0.41115">
        <ele>362.55</ele>
        <time>2013-01-29T14:05:43Z</time>
      </trkpt>
      <trkpt lat="43.24039" lon="-0.4111">
        <ele>362.55</ele>
        <time>2013-01-29T14:05:51Z</time>
      </trkpt>
      <trkpt lat="43.2403" lon="-0.41106">
        <ele>362.07</ele>
        <time>2013-01-29T14:05:59Z</time>
      </trkpt>
      <trkpt lat="43.24021" lon="-0.41102">
        <ele>361.59</ele>
        <time>2013-01-29T14:06:07Z</time>
      </trkpt>
      <trkpt lat="43.24012" lon="-0.41097">
        <ele>362.07</ele>
        <time>2013-01-29T14:06:15Z</time>
      </trkpt>
      <trkpt lat="43.24002" lon="-0.41093">
        <ele>361.59</ele>
        <time>2013-01-29T14:06:24Z</time>
      </trkpt>
      <trkpt lat="43.23993" lon="-0.41088">
        <ele>361.11</ele>
        <time>2013-01-29T14:06:33Z</time>
      </trkpt>
      <trkpt lat="43.23983" lon="-0.41083">
        <ele>361.11</ele>
        <time>2013-01-29T14:06:42Z</time>
      </trkpt>
      <trkpt lat="43.23973" lon="-0.41078">
        <ele>361.11</ele>
        <time>2013-01-29T14:06:51Z</time>
      </trkpt>
      <trkpt lat="43.23962" lon="-0.41074">
        <ele>361.11</ele>
        <time>2013-01-29T14:07:00Z</time>
      </trkpt>
      <trkpt lat="43.23952" lon="-0.4107">
        <ele>360.63</ele>
        <time>2013-01-29T14:07:09Z</time>
      </trkpt>
      <trkpt lat="43.23941" lon="-0.41067">
        <ele>361.11</ele>
        <time>2013-01-29T14:07:18Z</time>
      </trkpt>
      <trkpt lat="43.23932" lon="-0.41064">
        <ele>361.11</ele>
        <time>2013-01-29T14:07:26Z</time>
      </trkpt>
      <trkpt lat="43.23921" lon="-0.41065">
        <ele>361.11</ele>
        <time>2013-01-29T14:07:36Z</time>
      </trkpt>
      <trkpt lat="43.23911" lon="-0.41062">
        <ele>361.59</ele>
        <time>2013-01-29T14:07:45Z</time>
      </trkpt>
      <trkpt lat="43.23902" lon="-0.41062">
        <ele>361.59</ele>
        <time>2013-01-29T14:07:53Z</time>
      </trkpt>
      <trkpt lat="43.23892" lon="-0.41062">
        <ele>362.07</ele>
        <time>2013-01-29T14:08:02Z</time>
      </trkpt>
      <trkpt lat="43.23882" lon="-0.41063">
        <ele>362.55</ele>
        <time>2013-01-29T14:08:11Z</time>
      </trkpt>
      <trkpt lat="43.23872" lon="-0.41063">
        <ele>362.55</ele>
        <time>2013-01-29T14:08:19Z</time>
      </trkpt>
      <trkpt lat="43.23863" lon="-0.41065">
        <ele>363.04</ele>
        <time>2013-01-29T14:08:28Z</time>
      </trkpt>
      <trkpt lat="43.23853" lon="-0.41066">
        <ele>363.52</ele>
        <time>2013-01-29T14:08:37Z</time>
      </trkpt>
      <trkpt lat="43.23843" lon="-0.41068">
        <ele>364</ele>
        <time>2013-01-29T14:08:45Z</time>
      </trkpt>
      <trkpt lat="43.23833" lon="-0.41069">
        <ele>364.48</ele>
        <time>2013-01-29T14:08:54Z</time>
      </trkpt>
      <trkpt lat="43.23822" lon="-0.41073">
        <ele>364.96</ele>
        <time>2013-01-29T14:09:03Z</time>
      </trkpt>
      <trkpt lat="43.23814" lon="-0.41077">
        <ele>364.96</ele>
        <time>2013-01-29T14:09:11Z</time>
      </trkpt>
      <trkpt lat="43.23805" lon="-0.41081">
        <ele>365.92</ele>
        <time>2013-01-29T14:09:19Z</time>
      </trkpt>
      <trkpt lat="43.23797" lon="-0.41085">
        <ele>365.92</ele>
        <time>2013-01-29T14:09:27Z</time>
      </trkpt>
      <trkpt lat="43.23788" lon="-0.41088">
        <ele>366.88</ele>
        <time>2013-01-29T14:09:35Z</time>
      </trkpt>
      <trkpt lat="43.23779" lon="-0.41089">
        <ele>367.36</ele>
        <time>2013-01-29T14:09:44Z</time>
      </trkpt>
      <trkpt lat="43.23768" lon="-0.41089">
        <ele>367.84</ele>
        <time>2013-01-29T14:09:54Z</time>
      </trkpt>
      <trkpt lat="43.23758" lon="-0.41086">
        <ele>368.32</ele>
        <time>2013-01-29T14:10:04Z</time>
      </trkpt>
      <trkpt lat="43.23748" lon="-0.41081">
        <ele>368.8</ele>
        <time>2013-01-29T14:10:14Z</time>
      </trkpt>
      <trkpt lat="43.23737" lon="-0.41077">
        <ele>369.28</ele>
        <time>2013-01-29T14:10:24Z</time>
      </trkpt>
      <trkpt lat="43.23726" lon="-0.41072">
        <ele>369.28</ele>
        <time>2013-01-29T14:10:34Z</time>
      </trkpt>
      <trkpt lat="43.23715" lon="-0.4107">
        <ele>370.24</ele>
        <time>2013-01-29T14:10:44Z</time>
      </trkpt>
      <trkpt lat="43.23705" lon="-0.41069">
        <ele>370.24</ele>
        <time>2013-01-29T14:10:54Z</time>
      </trkpt>
      <trkpt lat="43.23695" lon="-0.41068">
        <ele>370.24</ele>
        <time>2013-01-29T14:11:03Z</time>
      </trkpt>
      <trkpt lat="43.23686" lon="-0.41065">
        <ele>369.76</ele>
        <time>2013-01-29T14:11:12Z</time>
      </trkpt>
      <trkpt lat="43.23683" lon="-0.41068">
        <ele>368.8</ele>
        <time>2013-01-29T14:11:48Z</time>
      </trkpt>
      <trkpt lat="43.2368" lon="-0.41067">
        <ele>368.8</ele>
        <time>2013-01-29T14:13:52Z</time>
      </trkpt>
      <trkpt lat="43.23669" lon="-0.41066">
        <ele>367.84</ele>
        <time>2013-01-29T14:14:02Z</time>
      </trkpt>
      <trkpt lat="43.23658" lon="-0.41066">
        <ele>366.88</ele>
        <time>2013-01-29T14:14:12Z</time>
      </trkpt>
      <trkpt lat="43.23649" lon="-0.41067">
        <ele>365.92</ele>
        <time>2013-01-29T14:14:22Z</time>
      </trkpt>
      <trkpt lat="43.23639" lon="-0.4107">
        <ele>365.44</ele>
        <time>2013-01-29T14:14:31Z</time>
      </trkpt>
      <trkpt lat="43.2363" lon="-0.41073">
        <ele>364.48</ele>
        <time>2013-01-29T14:14:39Z</time>
      </trkpt>
      <trkpt lat="43.23621" lon="-0.41075">
        <ele>364</ele>
        <time>2013-01-29T14:14:47Z</time>
      </trkpt>
      <trkpt lat="43.23611" lon="-0.41077">
        <ele>363.04</ele>
        <time>2013-01-29T14:14:56Z</time>
      </trkpt>
      <trkpt lat="43.23603" lon="-0.41079">
        <ele>363.04</ele>
        <time>2013-01-29T14:15:05Z</time>
      </trkpt>
      <trkpt lat="43.23592" lon="-0.4108">
        <ele>362.55</ele>
        <time>2013-01-29T14:15:13Z</time>
      </trkpt>
      <trkpt lat="43.23582" lon="-0.41082">
        <ele>362.07</ele>
        <time>2013-01-29T14:15:21Z</time>
      </trkpt>
      <trkpt lat="43.23573" lon="-0.41084">
        <ele>362.07</ele>
        <time>2013-01-29T14:15:29Z</time>
      </trkpt>
      <trkpt lat="43.23563" lon="-0.41086">
        <ele>362.07</ele>
        <time>2013-01-29T14:15:37Z</time>
      </trkpt>
      <trkpt lat="43.23553" lon="-0.41088">
        <ele>361.59</ele>
        <time>2013-01-29T14:15:45Z</time>
      </trkpt>
      <trkpt lat="43.23542" lon="-0.41091">
        <ele>361.59</ele>
        <time>2013-01-29T14:15:53Z</time>
      </trkpt>
      <trkpt lat="43.23533" lon="-0.41096">
        <ele>361.59</ele>
        <time>2013-01-29T14:16:01Z</time>
      </trkpt>
      <trkpt lat="43.23523" lon="-0.411">
        <ele>362.07</ele>
        <time>2013-01-29T14:16:09Z</time>
      </trkpt>
      <trkpt lat="43.23516" lon="-0.41105">
        <ele>361.59</ele>
        <time>2013-01-29T14:16:16Z</time>
      </trkpt>
      <trkpt lat="43.23508" lon="-0.41112">
        <ele>362.07</ele>
        <time>2013-01-29T14:16:24Z</time>
      </trkpt>
      <trkpt lat="43.23502" lon="-0.41122">
        <ele>361.59</ele>
        <time>2013-01-29T14:16:32Z</time>
      </trkpt>
      <trkpt lat="43.23495" lon="-0.41131">
        <ele>362.07</ele>
        <time>2013-01-29T14:16:40Z</time>
      </trkpt>
      <trkpt lat="43.23488" lon="-0.41141">
        <ele>362.55</ele>
        <time>2013-01-29T14:16:48Z</time>
      </trkpt>
      <trkpt lat="43.23481" lon="-0.41151">
        <ele>362.55</ele>
        <time>2013-01-29T14:16:56Z</time>
      </trkpt>
      <trkpt lat="43.23474" lon="-0.4116">
        <ele>362.55</ele>
        <time>2013-01-29T14:17:04Z</time>
      </trkpt>
      <trkpt lat="43.23466" lon="-0.41168">
        <ele>363.04</ele>
        <time>2013-01-29T14:17:13Z</time>
      </trkpt>
      <trkpt lat="43.23455" lon="-0.41174">
        <ele>363.04</ele>
        <time>2013-01-29T14:17:22Z</time>
      </trkpt>
      <trkpt lat="43.23446" lon="-0.41172">
        <ele>363.04</ele>
        <time>2013-01-29T14:17:31Z</time>
      </trkpt>
      <trkpt lat="43.23437" lon="-0.41161">
        <ele>362.07</ele>
        <time>2013-01-29T14:17:42Z</time>
      </trkpt>
      <trkpt lat="43.23433" lon="-0.41151">
        <ele>362.55</ele>
        <time>2013-01-29T14:17:51Z</time>
      </trkpt>
      <trkpt lat="43.2343" lon="-0.41139">
        <ele>361.59</ele>
        <time>2013-01-29T14:17:59Z</time>
      </trkpt>
      <trkpt lat="43.23428" lon="-0.41128">
        <ele>361.59</ele>
        <time>2013-01-29T14:18:07Z</time>
      </trkpt>
      <trkpt lat="43.23426" lon="-0.41115">
        <ele>361.11</ele>
        <time>2013-01-29T14:18:16Z</time>
      </trkpt>
      <trkpt lat="43.23423" lon="-0.41102">
        <ele>360.63</ele>
        <time>2013-01-29T14:18:25Z</time>
      </trkpt>
      <trkpt lat="43.23419" lon="-0.41089">
        <ele>360.15</ele>
        <time>2013-01-29T14:18:34Z</time>
      </trkpt>
      <trkpt lat="43.23415" lon="-0.41074">
        <ele>360.15</ele>
        <time>2013-01-29T14:18:46Z</time>
      </trkpt>
      <trkpt lat="43.23412" lon="-0.41058">
        <ele>360.15</ele>
        <time>2013-01-29T14:18:55Z</time>
      </trkpt>
      <trkpt lat="43.23408" lon="-0.41045">
        <ele>358.71</ele>
        <time>2013-01-29T14:19:03Z</time>
      </trkpt>
      <trkpt lat="43.23405" lon="-0.41031">
        <ele>357.75</ele>
        <time>2013-01-29T14:19:12Z</time>
      </trkpt>
      <trkpt lat="43.23403" lon="-0.41017">
        <ele>356.79</ele>
        <time>2013-01-29T14:19:22Z</time>
      </trkpt>
      <trkpt lat="43.23402" lon="-0.41004">
        <ele>355.83</ele>
        <time>2013-01-29T14:19:30Z</time>
      </trkpt>
      <trkpt lat="43.23401" lon="-0.40991">
        <ele>355.34</ele>
        <time>2013-01-29T14:19:38Z</time>
      </trkpt>
      <trkpt lat="43.23403" lon="-0.40979">
        <ele>354.38</ele>
        <time>2013-01-29T14:19:47Z</time>
      </trkpt>
      <trkpt lat="43.23405" lon="-0.40967">
        <ele>353.9</ele>
        <time>2013-01-29T14:19:55Z</time>
      </trkpt>
      <trkpt lat="43.23406" lon="-0.40953">
        <ele>352.94</ele>
        <time>2013-01-29T14:20:03Z</time>
      </trkpt>
      <trkpt lat="43.23408" lon="-0.4094">
        <ele>351.98</ele>
        <time>2013-01-29T14:20:12Z</time>
      </trkpt>
      <trkpt lat="43.23409" lon="-0.40928">
        <ele>351.5</ele>
        <time>2013-01-29T14:20:20Z</time>
      </trkpt>
      <trkpt lat="43.23412" lon="-0.40915">
        <ele>350.54</ele>
        <time>2013-01-29T14:20:29Z</time>
      </trkpt>
      <trkpt lat="43.23415" lon="-0.40902">
        <ele>350.06</ele>
        <time>2013-01-29T14:20:39Z</time>
      </trkpt>
      <trkpt lat="43.2342" lon="-0.40889">
        <ele>349.58</ele>
        <time>2013-01-29T14:20:49Z</time>
      </trkpt>
      <trkpt lat="43.23423" lon="-0.40875">
        <ele>349.1</ele>
        <time>2013-01-29T14:20:59Z</time>
      </trkpt>
      <trkpt lat="43.23427" lon="-0.40863">
        <ele>348.62</ele>
        <time>2013-01-29T14:21:07Z</time>
      </trkpt>
      <trkpt lat="43.23431" lon="-0.40852">
        <ele>348.13</ele>
        <time>2013-01-29T14:21:15Z</time>
      </trkpt>
      <trkpt lat="43.23436" lon="-0.4084">
        <ele>347.65</ele>
        <time>2013-01-29T14:21:23Z</time>
      </trkpt>
      <trkpt lat="43.2344" lon="-0.40828">
        <ele>347.65</ele>
        <time>2013-01-29T14:21:31Z</time>
      </trkpt>
      <trkpt lat="43.23444" lon="-0.40816">
        <ele>347.17</ele>
        <time>2013-01-29T14:21:39Z</time>
      </trkpt>
      <trkpt lat="43.23448" lon="-0.40803">
        <ele>346.69</ele>
        <time>2013-01-29T14:21:47Z</time>
      </trkpt>
      <trkpt lat="43.2345" lon="-0.4079">
        <ele>347.17</ele>
        <time>2013-01-29T14:21:56Z</time>
      </trkpt>
      <trkpt lat="43.23453" lon="-0.40777">
        <ele>346.69</ele>
        <time>2013-01-29T14:22:04Z</time>
      </trkpt>
      <trkpt lat="43.23458" lon="-0.40766">
        <ele>346.21</ele>
        <time>2013-01-29T14:22:12Z</time>
      </trkpt>
      <trkpt lat="43.23463" lon="-0.40753">
        <ele>346.21</ele>
        <time>2013-01-29T14:22:21Z</time>
      </trkpt>
      <trkpt lat="43.23468" lon="-0.40742">
        <ele>345.25</ele>
        <time>2013-01-29T14:22:29Z</time>
      </trkpt>
      <trkpt lat="43.23473" lon="-0.40729">
        <ele>345.25</ele>
        <time>2013-01-29T14:22:38Z</time>
      </trkpt>
      <trkpt lat="43.23478" lon="-0.40717">
        <ele>344.77</ele>
        <time>2013-01-29T14:22:47Z</time>
      </trkpt>
      <trkpt lat="43.23484" lon="-0.40708">
        <ele>344.77</ele>
        <time>2013-01-29T14:22:55Z</time>
      </trkpt>
      <trkpt lat="43.2349" lon="-0.40697">
        <ele>344.29</ele>
        <time>2013-01-29T14:23:03Z</time>
      </trkpt>
      <trkpt lat="43.23496" lon="-0.40686">
        <ele>343.81</ele>
        <time>2013-01-29T14:23:11Z</time>
      </trkpt>
      <trkpt lat="43.235" lon="-0.40674">
        <ele>344.29</ele>
        <time>2013-01-29T14:23:20Z</time>
      </trkpt>
      <trkpt lat="43.23504" lon="-0.40663">
        <ele>343.81</ele>
        <time>2013-01-29T14:23:28Z</time>
      </trkpt>
      <trkpt lat="43.23508" lon="-0.40651">
        <ele>343.81</ele>
        <time>2013-01-29T14:23:36Z</time>
      </trkpt>
      <trkpt lat="43.23512" lon="-0.40638">
        <ele>343.81</ele>
        <time>2013-01-29T14:23:45Z</time>
      </trkpt>
      <trkpt lat="43.23516" lon="-0.40627">
        <ele>343.81</ele>
        <time>2013-01-29T14:23:53Z</time>
      </trkpt>
      <trkpt lat="43.23518" lon="-0.40616">
        <ele>344.29</ele>
        <time>2013-01-29T14:24:02Z</time>
      </trkpt>
      <trkpt lat="43.23521" lon="-0.40603">
        <ele>344.29</ele>
        <time>2013-01-29T14:24:10Z</time>
      </trkpt>
      <trkpt lat="43.23523" lon="-0.4059">
        <ele>344.77</ele>
        <time>2013-01-29T14:24:19Z</time>
      </trkpt>
      <trkpt lat="43.23525" lon="-0.40576">
        <ele>345.25</ele>
        <time>2013-01-29T14:24:28Z</time>
      </trkpt>
      <trkpt lat="43.23528" lon="-0.40563">
        <ele>345.73</ele>
        <time>2013-01-29T14:24:36Z</time>
      </trkpt>
      <trkpt lat="43.23533" lon="-0.4055">
        <ele>346.21</ele>
        <time>2013-01-29T14:24:45Z</time>
      </trkpt>
      <trkpt lat="43.23534" lon="-0.40537">
        <ele>347.17</ele>
        <time>2013-01-29T14:24:53Z</time>
      </trkpt>
      <trkpt lat="43.23536" lon="-0.40524">
        <ele>347.65</ele>
        <time>2013-01-29T14:25:01Z</time>
      </trkpt>
      <trkpt lat="43.23539" lon="-0.40511">
        <ele>347.65</ele>
        <time>2013-01-29T14:25:09Z</time>
      </trkpt>
      <trkpt lat="43.23543" lon="-0.40498">
        <ele>348.13</ele>
        <time>2013-01-29T14:25:18Z</time>
      </trkpt>
      <trkpt lat="43.23545" lon="-0.40486">
        <ele>348.13</ele>
        <time>2013-01-29T14:25:26Z</time>
      </trkpt>
      <trkpt lat="43.23547" lon="-0.40474">
        <ele>348.62</ele>
        <time>2013-01-29T14:25:34Z</time>
      </trkpt>
      <trkpt lat="43.2355" lon="-0.40462">
        <ele>348.62</ele>
        <time>2013-01-29T14:25:42Z</time>
      </trkpt>
      <trkpt lat="43.23554" lon="-0.40449">
        <ele>348.62</ele>
        <time>2013-01-29T14:25:50Z</time>
      </trkpt>
      <trkpt lat="43.23557" lon="-0.40437">
        <ele>348.62</ele>
        <time>2013-01-29T14:25:58Z</time>
      </trkpt>
      <trkpt lat="43.2356" lon="-0.40425">
        <ele>348.62</ele>
        <time>2013-01-29T14:26:06Z</time>
      </trkpt>
      <trkpt lat="43.23563" lon="-0.40413">
        <ele>348.13</ele>
        <time>2013-01-29T14:26:14Z</time>
      </trkpt>
      <trkpt lat="43.23568" lon="-0.40401">
        <ele>347.65</ele>
        <time>2013-01-29T14:26:22Z</time>
      </trkpt>
      <trkpt lat="43.23574" lon="-0.40391">
        <ele>348.13</ele>
        <time>2013-01-29T14:26:30Z</time>
      </trkpt>
      <trkpt lat="43.23581" lon="-0.4038">
        <ele>347.65</ele>
        <time>2013-01-29T14:26:38Z</time>
      </trkpt>
      <trkpt lat="43.23587" lon="-0.40369">
        <ele>347.65</ele>
        <time>2013-01-29T14:26:46Z</time>
      </trkpt>
      <trkpt lat="43.23593" lon="-0.40359">
        <ele>347.17</ele>
        <time>2013-01-29T14:26:54Z</time>
      </trkpt>
      <trkpt lat="43.236" lon="-0.40349">
        <ele>347.17</ele>
        <time>2013-01-29T14:27:02Z</time>
      </trkpt>
      <trkpt lat="43.23606" lon="-0.40338">
        <ele>347.65</ele>
        <time>2013-01-29T14:27:10Z</time>
      </trkpt>
      <trkpt lat="43.23613" lon="-0.40327">
        <ele>347.65</ele>
        <time>2013-01-29T14:27:19Z</time>
      </trkpt>
      <trkpt lat="43.23618" lon="-0.40315">
        <ele>347.65</ele>
        <time>2013-01-29T14:27:28Z</time>
      </trkpt>
      <trkpt lat="43.23624" lon="-0.40304">
        <ele>348.13</ele>
        <time>2013-01-29T14:27:37Z</time>
      </trkpt>
      <trkpt lat="43.2363" lon="-0.40293">
        <ele>348.13</ele>
        <time>2013-01-29T14:27:47Z</time>
      </trkpt>
      <trkpt lat="43.23638" lon="-0.40283">
        <ele>348.62</ele>
        <time>2013-01-29T14:27:55Z</time>
      </trkpt>
      <trkpt lat="43.23644" lon="-0.40273">
        <ele>348.62</ele>
        <time>2013-01-29T14:28:03Z</time>
      </trkpt>
      <trkpt lat="43.23652" lon="-0.40263">
        <ele>348.62</ele>
        <time>2013-01-29T14:28:12Z</time>
      </trkpt>
      <trkpt lat="43.2366" lon="-0.40253">
        <ele>348.62</ele>
        <time>2013-01-29T14:28:21Z</time>
      </trkpt>
      <trkpt lat="43.23668" lon="-0.40244">
        <ele>348.62</ele>
        <time>2013-01-29T14:28:29Z</time>
      </trkpt>
      <trkpt lat="43.23675" lon="-0.40234">
        <ele>349.1</ele>
        <time>2013-01-29T14:28:38Z</time>
      </trkpt>
      <trkpt lat="43.23683" lon="-0.40225">
        <ele>349.58</ele>
        <time>2013-01-29T14:28:46Z</time>
      </trkpt>
      <trkpt lat="43.23691" lon="-0.40217">
        <ele>349.1</ele>
        <time>2013-01-29T14:28:54Z</time>
      </trkpt>
      <trkpt lat="43.237" lon="-0.40207">
        <ele>349.1</ele>
        <time>2013-01-29T14:29:03Z</time>
      </trkpt>
      <trkpt lat="43.23707" lon="-0.40198">
        <ele>350.06</ele>
        <time>2013-01-29T14:29:11Z</time>
      </trkpt>
      <trkpt lat="43.23714" lon="-0.40188">
        <ele>349.58</ele>
        <time>2013-01-29T14:29:22Z</time>
      </trkpt>
      <trkpt lat="43.23722" lon="-0.40179">
        <ele>350.06</ele>
        <time>2013-01-29T14:29:30Z</time>
      </trkpt>
      <trkpt lat="43.23731" lon="-0.40171">
        <ele>350.06</ele>
        <time>2013-01-29T14:29:38Z</time>
      </trkpt>
      <trkpt lat="43.23739" lon="-0.40164">
        <ele>350.54</ele>
        <time>2013-01-29T14:29:48Z</time>
      </trkpt>
      <trkpt lat="43.23742" lon="-0.40158">
        <ele>350.54</ele>
        <time>2013-01-29T14:30:41Z</time>
      </trkpt>
      <trkpt lat="43.23749" lon="-0.40146">
        <ele>350.54</ele>
        <time>2013-01-29T14:30:49Z</time>
      </trkpt>
      <trkpt lat="43.23756" lon="-0.40137">
        <ele>350.54</ele>
        <time>2013-01-29T14:30:57Z</time>
      </trkpt>
      <trkpt lat="43.23763" lon="-0.40127">
        <ele>350.06</ele>
        <time>2013-01-29T14:31:05Z</time>
      </trkpt>
      <trkpt lat="43.23771" lon="-0.40117">
        <ele>349.1</ele>
        <time>2013-01-29T14:31:13Z</time>
      </trkpt>
      <trkpt lat="43.23777" lon="-0.40108">
        <ele>348.62</ele>
        <time>2013-01-29T14:31:21Z</time>
      </trkpt>
      <trkpt lat="43.23784" lon="-0.401">
        <ele>347.65</ele>
        <time>2013-01-29T14:31:29Z</time>
      </trkpt>
      <trkpt lat="43.23792" lon="-0.40092">
        <ele>346.69</ele>
        <time>2013-01-29T14:31:38Z</time>
      </trkpt>
      <trkpt lat="43.23801" lon="-0.40086">
        <ele>345.73</ele>
        <time>2013-01-29T14:31:47Z</time>
      </trkpt>
      <trkpt lat="43.23811" lon="-0.40079">
        <ele>345.25</ele>
        <time>2013-01-29T14:31:55Z</time>
      </trkpt>
      <trkpt lat="43.2382" lon="-0.40073">
        <ele>343.81</ele>
        <time>2013-01-29T14:32:03Z</time>
      </trkpt>
      <trkpt lat="43.23829" lon="-0.40067">
        <ele>343.33</ele>
        <time>2013-01-29T14:32:12Z</time>
      </trkpt>
      <trkpt lat="43.23838" lon="-0.40061">
        <ele>343.33</ele>
        <time>2013-01-29T14:32:20Z</time>
      </trkpt>
      <trkpt lat="43.23847" lon="-0.40055">
        <ele>342.85</ele>
        <time>2013-01-29T14:32:28Z</time>
      </trkpt>
      <trkpt lat="43.23856" lon="-0.40049">
        <ele>342.85</ele>
        <time>2013-01-29T14:32:36Z</time>
      </trkpt>
      <trkpt lat="43.23865" lon="-0.40043">
        <ele>342.37</ele>
        <time>2013-01-29T14:32:44Z</time>
      </trkpt>
      <trkpt lat="43.23874" lon="-0.40037">
        <ele>342.37</ele>
        <time>2013-01-29T14:32:53Z</time>
      </trkpt>
      <trkpt lat="43.23884" lon="-0.40034">
        <ele>342.37</ele>
        <time>2013-01-29T14:33:01Z</time>
      </trkpt>
      <trkpt lat="43.23892" lon="-0.40029">
        <ele>342.37</ele>
        <time>2013-01-29T14:33:09Z</time>
      </trkpt>
      <trkpt lat="43.23902" lon="-0.40025">
        <ele>342.37</ele>
        <time>2013-01-29T14:33:18Z</time>
      </trkpt>
      <trkpt lat="43.2391" lon="-0.4002">
        <ele>342.37</ele>
        <time>2013-01-29T14:33:26Z</time>
      </trkpt>
      <trkpt lat="43.23919" lon="-0.40016">
        <ele>342.37</ele>
        <time>2013-01-29T14:33:34Z</time>
      </trkpt>
      <trkpt lat="43.23929" lon="-0.40011">
        <ele>341.89</ele>
        <time>2013-01-29T14:33:45Z</time>
      </trkpt>
      <trkpt lat="43.23939" lon="-0.40006">
        <ele>341.41</ele>
        <time>2013-01-29T14:33:54Z</time>
      </trkpt>
      <trkpt lat="43.23948" lon="-0.40002">
        <ele>340.92</ele>
        <time>2013-01-29T14:34:03Z</time>
      </trkpt>
      <trkpt lat="43.23958" lon="-0.4">
        <ele>340.44</ele>
        <time>2013-01-29T14:34:12Z</time>
      </trkpt>
      <trkpt lat="43.23968" lon="-0.39997">
        <ele>339.96</ele>
        <time>2013-01-29T14:34:22Z</time>
      </trkpt>
      <trkpt lat="43.23977" lon="-0.39994">
        <ele>339.48</ele>
        <time>2013-01-29T14:34:31Z</time>
      </trkpt>
      <trkpt lat="43.23986" lon="-0.3999">
        <ele>338.52</ele>
        <time>2013-01-29T14:34:40Z</time>
      </trkpt>
      <trkpt lat="43.23996" lon="-0.39987">
        <ele>338.04</ele>
        <time>2013-01-29T14:34:49Z</time>
      </trkpt>
      <trkpt lat="43.24005" lon="-0.39984">
        <ele>336.6</ele>
        <time>2013-01-29T14:34:58Z</time>
      </trkpt>
      <trkpt lat="43.24014" lon="-0.3998">
        <ele>335.64</ele>
        <time>2013-01-29T14:35:07Z</time>
      </trkpt>
      <trkpt lat="43.24023" lon="-0.39977">
        <ele>335.16</ele>
        <time>2013-01-29T14:35:16Z</time>
      </trkpt>
      <trkpt lat="43.24033" lon="-0.39973">
        <ele>334.68</ele>
        <time>2013-01-29T14:35:25Z</time>
      </trkpt>
      <trkpt lat="43.24042" lon="-0.39968">
        <ele>333.71</ele>
        <time>2013-01-29T14:35:34Z</time>
      </trkpt>
      <trkpt lat="43.24051" lon="-0.39964">
        <ele>333.23</ele>
        <time>2013-01-29T14:35:43Z</time>
      </trkpt>
      <trkpt lat="43.2406" lon="-0.39959">
        <ele>332.75</ele>
        <time>2013-01-29T14:35:52Z</time>
      </trkpt>
      <trkpt lat="43.2407" lon="-0.39954">
        <ele>331.79</ele>
        <time>2013-01-29T14:36:01Z</time>
      </trkpt>
      <trkpt lat="43.2408" lon="-0.39949">
        <ele>331.79</ele>
        <time>2013-01-29T14:36:10Z</time>
      </trkpt>
      <trkpt lat="43.24088" lon="-0.39944">
        <ele>331.79</ele>
        <time>2013-01-29T14:36:18Z</time>
      </trkpt>
      <trkpt lat="43.24098" lon="-0.3994">
        <ele>331.31</ele>
        <time>2013-01-29T14:36:27Z</time>
      </trkpt>
      <trkpt lat="43.24108" lon="-0.39936">
        <ele>330.83</ele>
        <time>2013-01-29T14:36:36Z</time>
      </trkpt>
      <trkpt lat="43.24117" lon="-0.39932">
        <ele>329.87</ele>
        <time>2013-01-29T14:36:46Z</time>
      </trkpt>
      <trkpt lat="43.24126" lon="-0.39931">
        <ele>329.87</ele>
        <time>2013-01-29T14:36:54Z</time>
      </trkpt>
      <trkpt lat="43.24136" lon="-0.39928">
        <ele>329.87</ele>
        <time>2013-01-29T14:37:02Z</time>
      </trkpt>
      <trkpt lat="43.24145" lon="-0.39926">
        <ele>329.39</ele>
        <time>2013-01-29T14:37:10Z</time>
      </trkpt>
      <trkpt lat="43.24153" lon="-0.39924">
        <ele>328.43</ele>
        <time>2013-01-29T14:37:18Z</time>
      </trkpt>
      <trkpt lat="43.24163" lon="-0.39923">
        <ele>327.95</ele>
        <time>2013-01-29T14:37:26Z</time>
      </trkpt>
      <trkpt lat="43.24172" lon="-0.39922">
        <ele>326.99</ele>
        <time>2013-01-29T14:37:34Z</time>
      </trkpt>
      <trkpt lat="43.24181" lon="-0.39919">
        <ele>326.99</ele>
        <time>2013-01-29T14:37:41Z</time>
      </trkpt>
      <trkpt lat="43.24189" lon="-0.39918">
        <ele>326.5</ele>
        <time>2013-01-29T14:37:49Z</time>
      </trkpt>
      <trkpt lat="43.24199" lon="-0.39917">
        <ele>325.54</ele>
        <time>2013-01-29T14:37:58Z</time>
      </trkpt>
      <trkpt lat="43.24209" lon="-0.39915">
        <ele>326.02</ele>
        <time>2013-01-29T14:38:06Z</time>
      </trkpt>
      <trkpt lat="43.24219" lon="-0.39911">
        <ele>325.06</ele>
        <time>2013-01-29T14:38:14Z</time>
      </trkpt>
      <trkpt lat="43.24229" lon="-0.39908">
        <ele>324.58</ele>
        <time>2013-01-29T14:38:22Z</time>
      </trkpt>
      <trkpt lat="43.24238" lon="-0.39906">
        <ele>324.1</ele>
        <time>2013-01-29T14:38:30Z</time>
      </trkpt>
      <trkpt lat="43.24248" lon="-0.39905">
        <ele>323.62</ele>
        <time>2013-01-29T14:38:38Z</time>
      </trkpt>
      <trkpt lat="43.24257" lon="-0.39902">
        <ele>323.62</ele>
        <time>2013-01-29T14:38:46Z</time>
      </trkpt>
      <trkpt lat="43.24267" lon="-0.399">
        <ele>323.14</ele>
        <time>2013-01-29T14:38:54Z</time>
      </trkpt>
      <trkpt lat="43.24277" lon="-0.39896">
        <ele>323.14</ele>
        <time>2013-01-29T14:39:02Z</time>
      </trkpt>
      <trkpt lat="43.24286" lon="-0.39889">
        <ele>322.18</ele>
        <time>2013-01-29T14:39:14Z</time>
      </trkpt>
      <trkpt lat="43.24292" lon="-0.39888">
        <ele>321.22</ele>
        <time>2013-01-29T14:40:18Z</time>
      </trkpt>
      <trkpt lat="43.24302" lon="-0.39889">
        <ele>321.7</ele>
        <time>2013-01-29T14:40:30Z</time>
      </trkpt>
      <trkpt lat="43.24308" lon="-0.39889">
        <ele>321.22</ele>
        <time>2013-01-29T14:40:53Z</time>
      </trkpt>
      <trkpt lat="43.24313" lon="-0.39888">
        <ele>321.7</ele>
        <time>2013-01-29T14:42:31Z</time>
      </trkpt>
      <trkpt lat="43.24323" lon="-0.39888">
        <ele>321.7</ele>
        <time>2013-01-29T14:42:42Z</time>
      </trkpt>
      <trkpt lat="43.24333" lon="-0.39885">
        <ele>322.18</ele>
        <time>2013-01-29T14:42:51Z</time>
      </trkpt>
      <trkpt lat="43.24341" lon="-0.39885">
        <ele>321.7</ele>
        <time>2013-01-29T14:43:05Z</time>
      </trkpt>
      <trkpt lat="43.24348" lon="-0.39881">
        <ele>321.22</ele>
        <time>2013-01-29T14:43:19Z</time>
      </trkpt>
      <trkpt lat="43.24357" lon="-0.39878">
        <ele>321.7</ele>
        <time>2013-01-29T14:43:28Z</time>
      </trkpt>
      <trkpt lat="43.24366" lon="-0.39874">
        <ele>321.7</ele>
        <time>2013-01-29T14:43:38Z</time>
      </trkpt>
      <trkpt lat="43.24376" lon="-0.39872">
        <ele>321.22</ele>
        <time>2013-01-29T14:43:48Z</time>
      </trkpt>
      <trkpt lat="43.24386" lon="-0.39871">
        <ele>321.7</ele>
        <time>2013-01-29T14:43:57Z</time>
      </trkpt>
      <trkpt lat="43.24395" lon="-0.39868">
        <ele>321.7</ele>
        <time>2013-01-29T14:44:06Z</time>
      </trkpt>
      <trkpt lat="43.24405" lon="-0.39866">
        <ele>321.7</ele>
        <time>2013-01-29T14:44:15Z</time>
      </trkpt>
      <trkpt lat="43.24414" lon="-0.39864">
        <ele>321.7</ele>
        <time>2013-01-29T14:44:24Z</time>
      </trkpt>
      <trkpt lat="43.24424" lon="-0.39862">
        <ele>321.7</ele>
        <time>2013-01-29T14:44:33Z</time>
      </trkpt>
      <trkpt lat="43.24433" lon="-0.3986">
        <ele>321.7</ele>
        <time>2013-01-29T14:44:42Z</time>
      </trkpt>
      <trkpt lat="43.24443" lon="-0.3986">
        <ele>321.7</ele>
        <time>2013-01-29T14:44:51Z</time>
      </trkpt>
      <trkpt lat="43.24453" lon="-0.3986">
        <ele>322.18</ele>
        <time>2013-01-29T14:45:00Z</time>
      </trkpt>
      <trkpt lat="43.24462" lon="-0.39859">
        <ele>322.66</ele>
        <time>2013-01-29T14:45:08Z</time>
      </trkpt>
      <trkpt lat="43.24472" lon="-0.39859">
        <ele>322.18</ele>
        <time>2013-01-29T14:45:17Z</time>
      </trkpt>
      <trkpt lat="43.24481" lon="-0.3986">
        <ele>321.7</ele>
        <time>2013-01-29T14:45:26Z</time>
      </trkpt>
      <trkpt lat="43.24491" lon="-0.39859">
        <ele>321.7</ele>
        <time>2013-01-29T14:45:35Z</time>
      </trkpt>
      <trkpt lat="43.24501" lon="-0.39857">
        <ele>321.7</ele>
        <time>2013-01-29T14:45:43Z</time>
      </trkpt>
      <trkpt lat="43.24511" lon="-0.39855">
        <ele>320.74</ele>
        <time>2013-01-29T14:45:51Z</time>
      </trkpt>
      <trkpt lat="43.24521" lon="-0.39855">
        <ele>320.26</ele>
        <time>2013-01-29T14:45:59Z</time>
      </trkpt>
      <trkpt lat="43.2453" lon="-0.39855">
        <ele>319.78</ele>
        <time>2013-01-29T14:46:07Z</time>
      </trkpt>
      <trkpt lat="43.2454" lon="-0.39854">
        <ele>319.3</ele>
        <time>2013-01-29T14:46:16Z</time>
      </trkpt>
      <trkpt lat="43.24549" lon="-0.39854">
        <ele>319.3</ele>
        <time>2013-01-29T14:46:25Z</time>
      </trkpt>
      <trkpt lat="43.24559" lon="-0.39854">
        <ele>318.81</ele>
        <time>2013-01-29T14:46:33Z</time>
      </trkpt>
      <trkpt lat="43.24568" lon="-0.39854">
        <ele>318.33</ele>
        <time>2013-01-29T14:46:42Z</time>
      </trkpt>
      <trkpt lat="43.24579" lon="-0.39854">
        <ele>318.33</ele>
        <time>2013-01-29T14:46:51Z</time>
      </trkpt>
      <trkpt lat="43.24589" lon="-0.39855">
        <ele>318.33</ele>
        <time>2013-01-29T14:47:00Z</time>
      </trkpt>
      <trkpt lat="43.24598" lon="-0.39856">
        <ele>317.85</ele>
        <time>2013-01-29T14:47:08Z</time>
      </trkpt>
      <trkpt lat="43.24608" lon="-0.39857">
        <ele>318.33</ele>
        <time>2013-01-29T14:47:17Z</time>
      </trkpt>
      <trkpt lat="43.24618" lon="-0.39859">
        <ele>318.33</ele>
        <time>2013-01-29T14:47:26Z</time>
      </trkpt>
      <trkpt lat="43.24627" lon="-0.3986">
        <ele>318.81</ele>
        <time>2013-01-29T14:47:35Z</time>
      </trkpt>
      <trkpt lat="43.24637" lon="-0.39862">
        <ele>319.3</ele>
        <time>2013-01-29T14:47:44Z</time>
      </trkpt>
      <trkpt lat="43.24648" lon="-0.39862">
        <ele>319.3</ele>
        <time>2013-01-29T14:47:54Z</time>
      </trkpt>
      <trkpt lat="43.24657" lon="-0.39865">
        <ele>319.78</ele>
        <time>2013-01-29T14:48:07Z</time>
      </trkpt>
      <trkpt lat="43.24666" lon="-0.39864">
        <ele>320.26</ele>
        <time>2013-01-29T14:48:22Z</time>
      </trkpt>
      <trkpt lat="43.24675" lon="-0.39863">
        <ele>320.26</ele>
        <time>2013-01-29T14:48:31Z</time>
      </trkpt>
      <trkpt lat="43.24686" lon="-0.39861">
        <ele>320.26</ele>
        <time>2013-01-29T14:48:40Z</time>
      </trkpt>
      <trkpt lat="43.24696" lon="-0.3986">
        <ele>320.74</ele>
        <time>2013-01-29T14:48:49Z</time>
      </trkpt>
      <trkpt lat="43.24706" lon="-0.3986">
        <ele>320.26</ele>
        <time>2013-01-29T14:48:58Z</time>
      </trkpt>
      <trkpt lat="43.24717" lon="-0.39859">
        <ele>319.78</ele>
        <time>2013-01-29T14:49:07Z</time>
      </trkpt>
      <trkpt lat="43.24727" lon="-0.39858">
        <ele>318.81</ele>
        <time>2013-01-29T14:49:17Z</time>
      </trkpt>
      <trkpt lat="43.24737" lon="-0.39856">
        <ele>318.81</ele>
        <time>2013-01-29T14:49:27Z</time>
      </trkpt>
      <trkpt lat="43.24746" lon="-0.39856">
        <ele>318.33</ele>
        <time>2013-01-29T14:49:37Z</time>
      </trkpt>
      <trkpt lat="43.24756" lon="-0.39856">
        <ele>317.37</ele>
        <time>2013-01-29T14:49:47Z</time>
      </trkpt>
      <trkpt lat="43.24766" lon="-0.39858">
        <ele>317.37</ele>
        <time>2013-01-29T14:49:56Z</time>
      </trkpt>
      <trkpt lat="43.24776" lon="-0.39861">
        <ele>317.85</ele>
        <time>2013-01-29T14:50:05Z</time>
      </trkpt>
      <trkpt lat="43.24786" lon="-0.39862">
        <ele>317.37</ele>
        <time>2013-01-29T14:50:15Z</time>
      </trkpt>
      <trkpt lat="43.24796" lon="-0.39865">
        <ele>317.37</ele>
        <time>2013-01-29T14:50:24Z</time>
      </trkpt>
      <trkpt lat="43.24805" lon="-0.39868">
        <ele>317.37</ele>
        <time>2013-01-29T14:50:47Z</time>
      </trkpt>
      <trkpt lat="43.24815" lon="-0.39872">
        <ele>317.85</ele>
        <time>2013-01-29T14:50:56Z</time>
      </trkpt>
      <trkpt lat="43.24825" lon="-0.39875">
        <ele>317.85</ele>
        <time>2013-01-29T14:51:05Z</time>
      </trkpt>
      <trkpt lat="43.24835" lon="-0.39877">
        <ele>318.81</ele>
        <time>2013-01-29T14:51:15Z</time>
      </trkpt>
      <trkpt lat="43.24845" lon="-0.3988">
        <ele>318.81</ele>
        <time>2013-01-29T14:51:24Z</time>
      </trkpt>
      <trkpt lat="43.24854" lon="-0.39882">
        <ele>319.78</ele>
        <time>2013-01-29T14:51:33Z</time>
      </trkpt>
      <trkpt lat="43.24864" lon="-0.39883">
        <ele>320.26</ele>
        <time>2013-01-29T14:51:42Z</time>
      </trkpt>
      <trkpt lat="43.24874" lon="-0.39885">
        <ele>321.22</ele>
        <time>2013-01-29T14:51:51Z</time>
      </trkpt>
      <trkpt lat="43.24884" lon="-0.39887">
        <ele>321.7</ele>
        <time>2013-01-29T14:52:00Z</time>
      </trkpt>
      <trkpt lat="43.24894" lon="-0.39888">
        <ele>322.66</ele>
        <time>2013-01-29T14:52:09Z</time>
      </trkpt>
      <trkpt lat="43.24903" lon="-0.39889">
        <ele>322.66</ele>
        <time>2013-01-29T14:52:17Z</time>
      </trkpt>
      <trkpt lat="43.24913" lon="-0.39889">
        <ele>322.66</ele>
        <time>2013-01-29T14:52:26Z</time>
      </trkpt>
      <trkpt lat="43.24922" lon="-0.39891">
        <ele>322.66</ele>
        <time>2013-01-29T14:52:34Z</time>
      </trkpt>
      <trkpt lat="43.24931" lon="-0.39892">
        <ele>321.7</ele>
        <time>2013-01-29T14:52:43Z</time>
      </trkpt>
      <trkpt lat="43.24941" lon="-0.39894">
        <ele>320.74</ele>
        <time>2013-01-29T14:52:52Z</time>
      </trkpt>
      <trkpt lat="43.24952" lon="-0.39896">
        <ele>319.78</ele>
        <time>2013-01-29T14:53:01Z</time>
      </trkpt>
      <trkpt lat="43.24961" lon="-0.39898">
        <ele>319.3</ele>
        <time>2013-01-29T14:53:09Z</time>
      </trkpt>
      <trkpt lat="43.24969" lon="-0.39901">
        <ele>318.33</ele>
        <time>2013-01-29T14:53:17Z</time>
      </trkpt>
      <trkpt lat="43.24978" lon="-0.39904">
        <ele>318.33</ele>
        <time>2013-01-29T14:53:25Z</time>
      </trkpt>
      <trkpt lat="43.24987" lon="-0.39908">
        <ele>317.85</ele>
        <time>2013-01-29T14:53:33Z</time>
      </trkpt>
      <trkpt lat="43.24996" lon="-0.39912">
        <ele>317.85</ele>
        <time>2013-01-29T14:53:41Z</time>
      </trkpt>
      <trkpt lat="43.25005" lon="-0.39917">
        <ele>317.37</ele>
        <time>2013-01-29T14:53:49Z</time>
      </trkpt>
      <trkpt lat="43.25015" lon="-0.39922">
        <ele>316.41</ele>
        <time>2013-01-29T14:53:57Z</time>
      </trkpt>
      <trkpt lat="43.25023" lon="-0.39927">
        <ele>315.93</ele>
        <time>2013-01-29T14:54:05Z</time>
      </trkpt>
      <trkpt lat="43.25031" lon="-0.39933">
        <ele>315.45</ele>
        <time>2013-01-29T14:54:13Z</time>
      </trkpt>
      <trkpt lat="43.25039" lon="-0.3994">
        <ele>314.49</ele>
        <time>2013-01-29T14:54:21Z</time>
      </trkpt>
      <trkpt lat="43.25047" lon="-0.39945">
        <ele>314.49</ele>
        <time>2013-01-29T14:54:29Z</time>
      </trkpt>
      <trkpt lat="43.25056" lon="-0.39951">
        <ele>314.01</ele>
        <time>2013-01-29T14:54:37Z</time>
      </trkpt>
      <trkpt lat="43.25064" lon="-0.39956">
        <ele>314.01</ele>
        <time>2013-01-29T14:54:45Z</time>
      </trkpt>
      <trkpt lat="43.25072" lon="-0.39962">
        <ele>313.53</ele>
        <time>2013-01-29T14:54:53Z</time>
      </trkpt>
      <trkpt lat="43.25081" lon="-0.39968">
        <ele>313.53</ele>
        <time>2013-01-29T14:55:01Z</time>
      </trkpt>
      <trkpt lat="43.25089" lon="-0.39974">
        <ele>312.57</ele>
        <time>2013-01-29T14:55:10Z</time>
      </trkpt>
      <trkpt lat="43.25098" lon="-0.39979">
        <ele>312.57</ele>
        <time>2013-01-29T14:55:18Z</time>
      </trkpt>
      <trkpt lat="43.25107" lon="-0.39985">
        <ele>311.6</ele>
        <time>2013-01-29T14:55:26Z</time>
      </trkpt>
      <trkpt lat="43.25115" lon="-0.3999">
        <ele>311.6</ele>
        <time>2013-01-29T14:55:34Z</time>
      </trkpt>
      <trkpt lat="43.25124" lon="-0.39996">
        <ele>311.12</ele>
        <time>2013-01-29T14:55:42Z</time>
      </trkpt>
      <trkpt lat="43.25133" lon="-0.40002">
        <ele>310.64</ele>
        <time>2013-01-29T14:55:50Z</time>
      </trkpt>
      <trkpt lat="43.25141" lon="-0.40008">
        <ele>310.16</ele>
        <time>2013-01-29T14:55:58Z</time>
      </trkpt>
      <trkpt lat="43.2515" lon="-0.40014">
        <ele>310.64</ele>
        <time>2013-01-29T14:56:06Z</time>
      </trkpt>
      <trkpt lat="43.25158" lon="-0.40019">
        <ele>310.16</ele>
        <time>2013-01-29T14:56:14Z</time>
      </trkpt>
      <trkpt lat="43.25167" lon="-0.40025">
        <ele>310.16</ele>
        <time>2013-01-29T14:56:22Z</time>
      </trkpt>
      <trkpt lat="43.25176" lon="-0.4003">
        <ele>310.64</ele>
        <time>2013-01-29T14:56:30Z</time>
      </trkpt>
      <trkpt lat="43.25184" lon="-0.40037">
        <ele>310.64</ele>
        <time>2013-01-29T14:56:39Z</time>
      </trkpt>
      <trkpt lat="43.25193" lon="-0.40041">
        <ele>310.64</ele>
        <time>2013-01-29T14:56:47Z</time>
      </trkpt>
      <trkpt lat="43.25202" lon="-0.40046">
        <ele>310.64</ele>
        <time>2013-01-29T14:56:56Z</time>
      </trkpt>
      <trkpt lat="43.25211" lon="-0.40052">
        <ele>310.64</ele>
        <time>2013-01-29T14:57:05Z</time>
      </trkpt>
      <trkpt lat="43.2522" lon="-0.40058">
        <ele>310.16</ele>
        <time>2013-01-29T14:57:14Z</time>
      </trkpt>
      <trkpt lat="43.25229" lon="-0.40063">
        <ele>309.68</ele>
        <time>2013-01-29T14:57:22Z</time>
      </trkpt>
      <trkpt lat="43.25238" lon="-0.40069">
        <ele>309.2</ele>
        <time>2013-01-29T14:57:30Z</time>
      </trkpt>
      <trkpt lat="43.25246" lon="-0.40074">
        <ele>308.24</ele>
        <time>2013-01-29T14:57:39Z</time>
      </trkpt>
      <trkpt lat="43.25255" lon="-0.4008">
        <ele>307.28</ele>
        <time>2013-01-29T14:57:47Z</time>
      </trkpt>
      <trkpt lat="43.25263" lon="-0.40086">
        <ele>306.8</ele>
        <time>2013-01-29T14:57:55Z</time>
      </trkpt>
      <trkpt lat="43.25272" lon="-0.40091">
        <ele>306.32</ele>
        <time>2013-01-29T14:58:03Z</time>
      </trkpt>
      <trkpt lat="43.2528" lon="-0.40094">
        <ele>304.39</ele>
        <time>2013-01-29T14:58:12Z</time>
      </trkpt>
      <trkpt lat="43.25291" lon="-0.40096">
        <ele>303.91</ele>
        <time>2013-01-29T14:58:21Z</time>
      </trkpt>
      <trkpt lat="43.25301" lon="-0.40095">
        <ele>302.47</ele>
        <time>2013-01-29T14:58:30Z</time>
      </trkpt>
      <trkpt lat="43.25311" lon="-0.40094">
        <ele>301.99</ele>
        <time>2013-01-29T14:58:38Z</time>
      </trkpt>
      <trkpt lat="43.25321" lon="-0.40093">
        <ele>301.03</ele>
        <time>2013-01-29T14:58:46Z</time>
      </trkpt>
      <trkpt lat="43.25332" lon="-0.40092">
        <ele>301.03</ele>
        <time>2013-01-29T14:58:54Z</time>
      </trkpt>
      <trkpt lat="43.25341" lon="-0.40091">
        <ele>300.55</ele>
        <time>2013-01-29T14:59:02Z</time>
      </trkpt>
      <trkpt lat="43.25351" lon="-0.4009">
        <ele>300.07</ele>
        <time>2013-01-29T14:59:10Z</time>
      </trkpt>
      <trkpt lat="43.25361" lon="-0.40091">
        <ele>300.07</ele>
        <time>2013-01-29T14:59:18Z</time>
      </trkpt>
      <trkpt lat="43.2537" lon="-0.40093">
        <ele>300.55</ele>
        <time>2013-01-29T14:59:26Z</time>
      </trkpt>
      <trkpt lat="43.25379" lon="-0.40096">
        <ele>300.55</ele>
        <time>2013-01-29T14:59:34Z</time>
      </trkpt>
      <trkpt lat="43.25389" lon="-0.40098">
        <ele>301.03</ele>
        <time>2013-01-29T14:59:43Z</time>
      </trkpt>
      <trkpt lat="43.25399" lon="-0.40101">
        <ele>301.51</ele>
        <time>2013-01-29T14:59:51Z</time>
      </trkpt>
      <trkpt lat="43.25409" lon="-0.40104">
        <ele>301.99</ele>
        <time>2013-01-29T15:00:00Z</time>
      </trkpt>
      <trkpt lat="43.25418" lon="-0.40107">
        <ele>301.99</ele>
        <time>2013-01-29T15:00:08Z</time>
      </trkpt>
      <trkpt lat="43.25427" lon="-0.40109">
        <ele>301.99</ele>
        <time>2013-01-29T15:00:16Z</time>
      </trkpt>
      <trkpt lat="43.25436" lon="-0.40113">
        <ele>301.99</ele>
        <time>2013-01-29T15:00:25Z</time>
      </trkpt>
      <trkpt lat="43.25446" lon="-0.40114">
        <ele>301.51</ele>
        <time>2013-01-29T15:00:33Z</time>
      </trkpt>
      <trkpt lat="43.25455" lon="-0.40118">
        <ele>301.99</ele>
        <time>2013-01-29T15:00:41Z</time>
      </trkpt>
      <trkpt lat="43.25464" lon="-0.4012">
        <ele>301.51</ele>
        <time>2013-01-29T15:00:49Z</time>
      </trkpt>
      <trkpt lat="43.25473" lon="-0.40121">
        <ele>301.51</ele>
        <time>2013-01-29T15:00:57Z</time>
      </trkpt>
      <trkpt lat="43.25483" lon="-0.40124">
        <ele>301.51</ele>
        <time>2013-01-29T15:01:06Z</time>
      </trkpt>
      <trkpt lat="43.25493" lon="-0.40127">
        <ele>301.51</ele>
        <time>2013-01-29T15:01:15Z</time>
      </trkpt>
      <trkpt lat="43.25503" lon="-0.4013">
        <ele>301.03</ele>
        <time>2013-01-29T15:01:24Z</time>
      </trkpt>
      <trkpt lat="43.25513" lon="-0.40133">
        <ele>301.03</ele>
        <time>2013-01-29T15:01:33Z</time>
      </trkpt>
      <trkpt lat="43.25522" lon="-0.40137">
        <ele>301.03</ele>
        <time>2013-01-29T15:01:43Z</time>
      </trkpt>
      <trkpt lat="43.25532" lon="-0.40142">
        <ele>301.03</ele>
        <time>2013-01-29T15:01:53Z</time>
      </trkpt>
      <trkpt lat="43.25541" lon="-0.40147">
        <ele>301.51</ele>
        <time>2013-01-29T15:02:02Z</time>
      </trkpt>
      <trkpt lat="43.25551" lon="-0.40153">
        <ele>301.03</ele>
        <time>2013-01-29T15:02:11Z</time>
      </trkpt>
      <trkpt lat="43.2556" lon="-0.40158">
        <ele>301.51</ele>
        <time>2013-01-29T15:02:21Z</time>
      </trkpt>
      <trkpt lat="43.25568" lon="-0.40161">
        <ele>301.03</ele>
        <time>2013-01-29T15:02:29Z</time>
      </trkpt>
      <trkpt lat="43.25577" lon="-0.40165">
        <ele>301.03</ele>
        <time>2013-01-29T15:02:37Z</time>
      </trkpt>
      <trkpt lat="43.25586" lon="-0.40169">
        <ele>300.07</ele>
        <time>2013-01-29T15:02:45Z</time>
      </trkpt>
      <trkpt lat="43.25596" lon="-0.40172">
        <ele>298.63</ele>
        <time>2013-01-29T15:02:53Z</time>
      </trkpt>
      <trkpt lat="43.25605" lon="-0.40174">
        <ele>298.63</ele>
        <time>2013-01-29T15:03:02Z</time>
      </trkpt>
      <trkpt lat="43.25615" lon="-0.40176">
        <ele>298.63</ele>
        <time>2013-01-29T15:03:11Z</time>
      </trkpt>
      <trkpt lat="43.25625" lon="-0.40178">
        <ele>298.15</ele>
        <time>2013-01-29T15:03:20Z</time>
      </trkpt>
      <trkpt lat="43.25634" lon="-0.4018">
        <ele>297.67</ele>
        <time>2013-01-29T15:03:28Z</time>
      </trkpt>
      <trkpt lat="43.25643" lon="-0.40182">
        <ele>297.67</ele>
        <time>2013-01-29T15:03:37Z</time>
      </trkpt>
      <trkpt lat="43.25653" lon="-0.40183">
        <ele>297.67</ele>
        <time>2013-01-29T15:03:45Z</time>
      </trkpt>
      <trkpt lat="43.25662" lon="-0.40184">
        <ele>296.7</ele>
        <time>2013-01-29T15:03:53Z</time>
      </trkpt>
      <trkpt lat="43.25672" lon="-0.40184">
        <ele>295.74</ele>
        <time>2013-01-29T15:04:01Z</time>
      </trkpt>
      <trkpt lat="43.25682" lon="-0.40185">
        <ele>295.74</ele>
        <time>2013-01-29T15:04:09Z</time>
      </trkpt>
      <trkpt lat="43.25691" lon="-0.40186">
        <ele>294.78</ele>
        <time>2013-01-29T15:04:17Z</time>
      </trkpt>
      <trkpt lat="43.25701" lon="-0.40186">
        <ele>294.3</ele>
        <time>2013-01-29T15:04:25Z</time>
      </trkpt>
      <trkpt lat="43.25711" lon="-0.40185">
        <ele>294.3</ele>
        <time>2013-01-29T15:04:33Z</time>
      </trkpt>
      <trkpt lat="43.2572" lon="-0.40185">
        <ele>294.3</ele>
        <time>2013-01-29T15:04:41Z</time>
      </trkpt>
      <trkpt lat="43.25731" lon="-0.40186">
        <ele>294.78</ele>
        <time>2013-01-29T15:04:50Z</time>
      </trkpt>
      <trkpt lat="43.25741" lon="-0.40187">
        <ele>294.3</ele>
        <time>2013-01-29T15:04:58Z</time>
      </trkpt>
      <trkpt lat="43.2575" lon="-0.40188">
        <ele>294.3</ele>
        <time>2013-01-29T15:05:06Z</time>
      </trkpt>
      <trkpt lat="43.2576" lon="-0.40189">
        <ele>295.26</ele>
        <time>2013-01-29T15:05:15Z</time>
      </trkpt>
      <trkpt lat="43.2577" lon="-0.4019">
        <ele>295.26</ele>
        <time>2013-01-29T15:05:24Z</time>
      </trkpt>
      <trkpt lat="43.25777" lon="-0.4019">
        <ele>295.74</ele>
        <time>2013-01-29T15:05:48Z</time>
      </trkpt>
      <trkpt lat="43.25784" lon="-0.4019">
        <ele>295.26</ele>
        <time>2013-01-29T15:06:38Z</time>
      </trkpt>
      <trkpt lat="43.25786" lon="-0.40189">
        <ele>293.82</ele>
        <time>2013-01-29T15:16:50Z</time>
      </trkpt>
      <trkpt lat="43.25785" lon="-0.40194">
        <ele>292.86</ele>
        <time>2013-01-29T15:28:44Z</time>
      </trkpt>
      <trkpt lat="43.25793" lon="-0.40199">
        <ele>293.82</ele>
        <time>2013-01-29T15:28:55Z</time>
      </trkpt>
      <trkpt lat="43.25803" lon="-0.40202">
        <ele>294.3</ele>
        <time>2013-01-29T15:29:05Z</time>
      </trkpt>
      <trkpt lat="43.25813" lon="-0.40205">
        <ele>295.26</ele>
        <time>2013-01-29T15:29:16Z</time>
      </trkpt>
      <trkpt lat="43.25824" lon="-0.40208">
        <ele>296.22</ele>
        <time>2013-01-29T15:29:25Z</time>
      </trkpt>
      <trkpt lat="43.25834" lon="-0.4021">
        <ele>296.7</ele>
        <time>2013-01-29T15:29:34Z</time>
      </trkpt>
      <trkpt lat="43.25843" lon="-0.40215">
        <ele>297.18</ele>
        <time>2013-01-29T15:29:43Z</time>
      </trkpt>
      <trkpt lat="43.25853" lon="-0.40218">
        <ele>298.63</ele>
        <time>2013-01-29T15:29:51Z</time>
      </trkpt>
      <trkpt lat="43.25861" lon="-0.40224">
        <ele>299.11</ele>
        <time>2013-01-29T15:30:01Z</time>
      </trkpt>
      <trkpt lat="43.25869" lon="-0.40229">
        <ele>299.59</ele>
        <time>2013-01-29T15:30:16Z</time>
      </trkpt>
      <trkpt lat="43.25876" lon="-0.40238">
        <ele>300.55</ele>
        <time>2013-01-29T15:30:25Z</time>
      </trkpt>
      <trkpt lat="43.25884" lon="-0.40245">
        <ele>300.55</ele>
        <time>2013-01-29T15:30:34Z</time>
      </trkpt>
      <trkpt lat="43.25892" lon="-0.40252">
        <ele>301.03</ele>
        <time>2013-01-29T15:30:43Z</time>
      </trkpt>
      <trkpt lat="43.25901" lon="-0.40259">
        <ele>301.51</ele>
        <time>2013-01-29T15:30:53Z</time>
      </trkpt>
      <trkpt lat="43.25908" lon="-0.40267">
        <ele>301.51</ele>
        <time>2013-01-29T15:31:02Z</time>
      </trkpt>
      <trkpt lat="43.25915" lon="-0.40275">
        <ele>301.99</ele>
        <time>2013-01-29T15:31:11Z</time>
      </trkpt>
      <trkpt lat="43.25925" lon="-0.40282">
        <ele>301.99</ele>
        <time>2013-01-29T15:31:20Z</time>
      </trkpt>
      <trkpt lat="43.25934" lon="-0.40287">
        <ele>301.99</ele>
        <time>2013-01-29T15:31:28Z</time>
      </trkpt>
      <trkpt lat="43.25942" lon="-0.40293">
        <ele>301.51</ele>
        <time>2013-01-29T15:31:36Z</time>
      </trkpt>
      <trkpt lat="43.25952" lon="-0.40297">
        <ele>301.99</ele>
        <time>2013-01-29T15:31:44Z</time>
      </trkpt>
      <trkpt lat="43.25959" lon="-0.40298">
        <ele>301.51</ele>
        <time>2013-01-29T15:32:04Z</time>
      </trkpt>
      <trkpt lat="43.25969" lon="-0.40303">
        <ele>301.99</ele>
        <time>2013-01-29T15:32:13Z</time>
      </trkpt>
      <trkpt lat="43.25978" lon="-0.40307">
        <ele>301.99</ele>
        <time>2013-01-29T15:32:22Z</time>
      </trkpt>
      <trkpt lat="43.25988" lon="-0.4031">
        <ele>301.99</ele>
        <time>2013-01-29T15:32:30Z</time>
      </trkpt>
      <trkpt lat="43.25998" lon="-0.40314">
        <ele>301.51</ele>
        <time>2013-01-29T15:32:39Z</time>
      </trkpt>
      <trkpt lat="43.26008" lon="-0.40319">
        <ele>301.03</ele>
        <time>2013-01-29T15:32:48Z</time>
      </trkpt>
      <trkpt lat="43.26018" lon="-0.40323">
        <ele>300.55</ele>
        <time>2013-01-29T15:32:57Z</time>
      </trkpt>
      <trkpt lat="43.26028" lon="-0.40327">
        <ele>300.07</ele>
        <time>2013-01-29T15:33:06Z</time>
      </trkpt>
      <trkpt lat="43.26038" lon="-0.40332">
        <ele>299.59</ele>
        <time>2013-01-29T15:33:15Z</time>
      </trkpt>
      <trkpt lat="43.26048" lon="-0.40336">
        <ele>298.63</ele>
        <time>2013-01-29T15:33:24Z</time>
      </trkpt>
      <trkpt lat="43.26057" lon="-0.40339">
        <ele>298.63</ele>
        <time>2013-01-29T15:33:32Z</time>
      </trkpt>
      <trkpt lat="43.26067" lon="-0.40342">
        <ele>298.15</ele>
        <time>2013-01-29T15:33:40Z</time>
      </trkpt>
      <trkpt lat="43.26076" lon="-0.40344">
        <ele>297.67</ele>
        <time>2013-01-29T15:33:48Z</time>
      </trkpt>
      <trkpt lat="43.26086" lon="-0.40346">
        <ele>297.18</ele>
        <time>2013-01-29T15:33:56Z</time>
      </trkpt>
      <trkpt lat="43.26094" lon="-0.40348">
        <ele>297.18</ele>
        <time>2013-01-29T15:34:05Z</time>
      </trkpt>
      <trkpt lat="43.26104" lon="-0.4035">
        <ele>297.18</ele>
        <time>2013-01-29T15:34:13Z</time>
      </trkpt>
      <trkpt lat="43.26114" lon="-0.40347">
        <ele>296.7</ele>
        <time>2013-01-29T15:34:22Z</time>
      </trkpt>
      <trkpt lat="43.26123" lon="-0.40339">
        <ele>297.18</ele>
        <time>2013-01-29T15:34:31Z</time>
      </trkpt>
      <trkpt lat="43.26131" lon="-0.40329">
        <ele>297.67</ele>
        <time>2013-01-29T15:34:40Z</time>
      </trkpt>
      <trkpt lat="43.26139" lon="-0.40321">
        <ele>298.15</ele>
        <time>2013-01-29T15:34:49Z</time>
      </trkpt>
      <trkpt lat="43.26147" lon="-0.40313">
        <ele>298.15</ele>
        <time>2013-01-29T15:34:59Z</time>
      </trkpt>
      <trkpt lat="43.26156" lon="-0.40306">
        <ele>298.63</ele>
        <time>2013-01-29T15:35:09Z</time>
      </trkpt>
      <trkpt lat="43.26165" lon="-0.403">
        <ele>299.11</ele>
        <time>2013-01-29T15:35:18Z</time>
      </trkpt>
      <trkpt lat="43.26173" lon="-0.40293">
        <ele>299.59</ele>
        <time>2013-01-29T15:35:28Z</time>
      </trkpt>
      <trkpt lat="43.26183" lon="-0.4029">
        <ele>300.55</ele>
        <time>2013-01-29T15:35:36Z</time>
      </trkpt>
      <trkpt lat="43.26193" lon="-0.40288">
        <ele>301.03</ele>
        <time>2013-01-29T15:35:46Z</time>
      </trkpt>
      <trkpt lat="43.26202" lon="-0.40285">
        <ele>301.51</ele>
        <time>2013-01-29T15:35:56Z</time>
      </trkpt>
      <trkpt lat="43.26211" lon="-0.40281">
        <ele>302.47</ele>
        <time>2013-01-29T15:36:06Z</time>
      </trkpt>
      <trkpt lat="43.26222" lon="-0.40276">
        <ele>302.95</ele>
        <time>2013-01-29T15:36:15Z</time>
      </trkpt>
      <trkpt lat="43.26232" lon="-0.40273">
        <ele>303.91</ele>
        <time>2013-01-29T15:36:24Z</time>
      </trkpt>
      <trkpt lat="43.2624" lon="-0.40269">
        <ele>305.36</ele>
        <time>2013-01-29T15:36:33Z</time>
      </trkpt>
      <trkpt lat="43.2625" lon="-0.40266">
        <ele>305.84</ele>
        <time>2013-01-29T15:36:42Z</time>
      </trkpt>
      <trkpt lat="43.2626" lon="-0.40264">
        <ele>306.8</ele>
        <time>2013-01-29T15:36:51Z</time>
      </trkpt>
      <trkpt lat="43.26269" lon="-0.40265">
        <ele>307.76</ele>
        <time>2013-01-29T15:37:01Z</time>
      </trkpt>
      <trkpt lat="43.26273" lon="-0.40278">
        <ele>307.28</ele>
        <time>2013-01-29T15:37:11Z</time>
      </trkpt>
      <trkpt lat="43.26274" lon="-0.40291">
        <ele>306.32</ele>
        <time>2013-01-29T15:37:21Z</time>
      </trkpt>
      <trkpt lat="43.26276" lon="-0.40304">
        <ele>305.84</ele>
        <time>2013-01-29T15:37:30Z</time>
      </trkpt>
      <trkpt lat="43.26277" lon="-0.40313">
        <ele>305.84</ele>
        <time>2013-01-29T15:37:43Z</time>
      </trkpt>
      <trkpt lat="43.26281" lon="-0.40322">
        <ele>305.36</ele>
        <time>2013-01-29T15:39:01Z</time>
      </trkpt>
      <trkpt lat="43.26283" lon="-0.40335">
        <ele>304.88</ele>
        <time>2013-01-29T15:39:09Z</time>
      </trkpt>
      <trkpt lat="43.26285" lon="-0.40348">
        <ele>303.91</ele>
        <time>2013-01-29T15:39:17Z</time>
      </trkpt>
      <trkpt lat="43.26286" lon="-0.40361">
        <ele>302.95</ele>
        <time>2013-01-29T15:39:25Z</time>
      </trkpt>
      <trkpt lat="43.26287" lon="-0.40374">
        <ele>302.47</ele>
        <time>2013-01-29T15:39:34Z</time>
      </trkpt>
      <trkpt lat="43.26286" lon="-0.40361">
        <ele>304.88</ele>
        <time>2013-01-29T15:39:50Z</time>
      </trkpt>
      <trkpt lat="43.26286" lon="-0.40369">
        <ele>303.91</ele>
        <time>2013-01-29T15:40:16Z</time>
      </trkpt>
      <trkpt lat="43.26287" lon="-0.40383">
        <ele>302.47</ele>
        <time>2013-01-29T15:40:25Z</time>
      </trkpt>
      <trkpt lat="43.26289" lon="-0.40396">
        <ele>301.51</ele>
        <time>2013-01-29T15:40:33Z</time>
      </trkpt>
      <trkpt lat="43.26294" lon="-0.40406">
        <ele>301.03</ele>
        <time>2013-01-29T15:40:42Z</time>
      </trkpt>
      <trkpt lat="43.26299" lon="-0.40417">
        <ele>300.07</ele>
        <time>2013-01-29T15:40:50Z</time>
      </trkpt>
      <trkpt lat="43.26303" lon="-0.4043">
        <ele>299.11</ele>
        <time>2013-01-29T15:40:57Z</time>
      </trkpt>
      <trkpt lat="43.26305" lon="-0.40443">
        <ele>298.15</ele>
        <time>2013-01-29T15:41:04Z</time>
      </trkpt>
      <trkpt lat="43.2631" lon="-0.40453">
        <ele>297.67</ele>
        <time>2013-01-29T15:41:11Z</time>
      </trkpt>
      <trkpt lat="43.26315" lon="-0.40465">
        <ele>296.7</ele>
        <time>2013-01-29T15:41:18Z</time>
      </trkpt>
      <trkpt lat="43.2632" lon="-0.40477">
        <ele>296.7</ele>
        <time>2013-01-29T15:41:25Z</time>
      </trkpt>
      <trkpt lat="43.26327" lon="-0.40488">
        <ele>296.7</ele>
        <time>2013-01-29T15:41:32Z</time>
      </trkpt>
      <trkpt lat="43.26332" lon="-0.40498">
        <ele>296.22</ele>
        <time>2013-01-29T15:41:39Z</time>
      </trkpt>
      <trkpt lat="43.26339" lon="-0.4051">
        <ele>295.74</ele>
        <time>2013-01-29T15:41:47Z</time>
      </trkpt>
      <trkpt lat="43.26344" lon="-0.40522">
        <ele>295.26</ele>
        <time>2013-01-29T15:41:54Z</time>
      </trkpt>
      <trkpt lat="43.26349" lon="-0.40532">
        <ele>294.3</ele>
        <time>2013-01-29T15:42:01Z</time>
      </trkpt>
      <trkpt lat="43.26357" lon="-0.40541">
        <ele>294.3</ele>
        <time>2013-01-29T15:42:08Z</time>
      </trkpt>
      <trkpt lat="43.26364" lon="-0.4055">
        <ele>293.34</ele>
        <time>2013-01-29T15:42:15Z</time>
      </trkpt>
      <trkpt lat="43.26373" lon="-0.40558">
        <ele>291.42</ele>
        <time>2013-01-29T15:42:23Z</time>
      </trkpt>
      <trkpt lat="43.26382" lon="-0.40564">
        <ele>290.94</ele>
        <time>2013-01-29T15:42:30Z</time>
      </trkpt>
      <trkpt lat="43.26391" lon="-0.40571">
        <ele>289.49</ele>
        <time>2013-01-29T15:42:38Z</time>
      </trkpt>
      <trkpt lat="43.26401" lon="-0.40575">
        <ele>288.05</ele>
        <time>2013-01-29T15:42:46Z</time>
      </trkpt>
      <trkpt lat="43.26409" lon="-0.4058">
        <ele>286.13</ele>
        <time>2013-01-29T15:42:54Z</time>
      </trkpt>
      <trkpt lat="43.26419" lon="-0.40577">
        <ele>284.21</ele>
        <time>2013-01-29T15:43:04Z</time>
      </trkpt>
      <trkpt lat="43.26429" lon="-0.40574">
        <ele>281.32</ele>
        <time>2013-01-29T15:43:14Z</time>
      </trkpt>
      <trkpt lat="43.26442" lon="-0.40575">
        <ele>278.92</ele>
        <time>2013-01-29T15:43:25Z</time>
      </trkpt>
      <trkpt lat="43.26451" lon="-0.40581">
        <ele>277</ele>
        <time>2013-01-29T15:43:35Z</time>
      </trkpt>
      <trkpt lat="43.26461" lon="-0.40586">
        <ele>274.59</ele>
        <time>2013-01-29T15:43:46Z</time>
      </trkpt>
      <trkpt lat="43.26469" lon="-0.40594">
        <ele>273.63</ele>
        <time>2013-01-29T15:43:56Z</time>
      </trkpt>
      <trkpt lat="43.26477" lon="-0.406">
        <ele>272.19</ele>
        <time>2013-01-29T15:44:06Z</time>
      </trkpt>
      <trkpt lat="43.26487" lon="-0.40607">
        <ele>270.27</ele>
        <time>2013-01-29T15:44:16Z</time>
      </trkpt>
      <trkpt lat="43.26498" lon="-0.40612">
        <ele>268.83</ele>
        <time>2013-01-29T15:44:26Z</time>
      </trkpt>
      <trkpt lat="43.26508" lon="-0.40623">
        <ele>267.86</ele>
        <time>2013-01-29T15:44:38Z</time>
      </trkpt>
      <trkpt lat="43.26516" lon="-0.40633">
        <ele>266.42</ele>
        <time>2013-01-29T15:44:47Z</time>
      </trkpt>
      <trkpt lat="43.26522" lon="-0.40643">
        <ele>265.94</ele>
        <time>2013-01-29T15:44:56Z</time>
      </trkpt>
      <trkpt lat="43.26529" lon="-0.40654">
        <ele>264.98</ele>
        <time>2013-01-29T15:45:05Z</time>
      </trkpt>
      <trkpt lat="43.26535" lon="-0.40664">
        <ele>264.02</ele>
        <time>2013-01-29T15:45:14Z</time>
      </trkpt>
      <trkpt lat="43.2654" lon="-0.40675">
        <ele>263.54</ele>
        <time>2013-01-29T15:45:23Z</time>
      </trkpt>
      <trkpt lat="43.26546" lon="-0.40686">
        <ele>262.58</ele>
        <time>2013-01-29T15:45:32Z</time>
      </trkpt>
      <trkpt lat="43.26552" lon="-0.40697">
        <ele>261.62</ele>
        <time>2013-01-29T15:45:42Z</time>
      </trkpt>
      <trkpt lat="43.26557" lon="-0.40708">
        <ele>260.17</ele>
        <time>2013-01-29T15:45:50Z</time>
      </trkpt>
      <trkpt lat="43.26562" lon="-0.40718">
        <ele>259.21</ele>
        <time>2013-01-29T15:45:59Z</time>
      </trkpt>
      <trkpt lat="43.26569" lon="-0.4073">
        <ele>258.73</ele>
        <time>2013-01-29T15:46:08Z</time>
      </trkpt>
      <trkpt lat="43.26575" lon="-0.40743">
        <ele>257.29</ele>
        <time>2013-01-29T15:46:19Z</time>
      </trkpt>
      <trkpt lat="43.26582" lon="-0.40753">
        <ele>256.81</ele>
        <time>2013-01-29T15:46:29Z</time>
      </trkpt>
      <trkpt lat="43.26588" lon="-0.40763">
        <ele>256.33</ele>
        <time>2013-01-29T15:46:38Z</time>
      </trkpt>
      <trkpt lat="43.26596" lon="-0.40775">
        <ele>255.85</ele>
        <time>2013-01-29T15:46:48Z</time>
      </trkpt>
      <trkpt lat="43.26603" lon="-0.40784">
        <ele>254.89</ele>
        <time>2013-01-29T15:46:58Z</time>
      </trkpt>
      <trkpt lat="43.26611" lon="-0.40791">
        <ele>253.44</ele>
        <time>2013-01-29T15:47:06Z</time>
      </trkpt>
      <trkpt lat="43.26618" lon="-0.40801">
        <ele>252.48</ele>
        <time>2013-01-29T15:47:14Z</time>
      </trkpt>
      <trkpt lat="43.26625" lon="-0.40811">
        <ele>252</ele>
        <time>2013-01-29T15:47:23Z</time>
      </trkpt>
      <trkpt lat="43.2663" lon="-0.40823">
        <ele>251.04</ele>
        <time>2013-01-29T15:47:33Z</time>
      </trkpt>
      <trkpt lat="43.26635" lon="-0.40838">
        <ele>249.6</ele>
        <time>2013-01-29T15:47:44Z</time>
      </trkpt>
      <trkpt lat="43.26642" lon="-0.40849">
        <ele>248.16</ele>
        <time>2013-01-29T15:47:55Z</time>
      </trkpt>
      <trkpt lat="43.2665" lon="-0.40862">
        <ele>247.2</ele>
        <time>2013-01-29T15:48:05Z</time>
      </trkpt>
      <trkpt lat="43.26659" lon="-0.4087">
        <ele>245.75</ele>
        <time>2013-01-29T15:48:15Z</time>
      </trkpt>
      <trkpt lat="43.26667" lon="-0.4088">
        <ele>244.31</ele>
        <time>2013-01-29T15:48:26Z</time>
      </trkpt>
      <trkpt lat="43.26675" lon="-0.40894">
        <ele>242.39</ele>
        <time>2013-01-29T15:48:38Z</time>
      </trkpt>
      <trkpt lat="43.26683" lon="-0.40909">
        <ele>239.99</ele>
        <time>2013-01-29T15:48:49Z</time>
      </trkpt>
      <trkpt lat="43.26689" lon="-0.40923">
        <ele>237.58</ele>
        <time>2013-01-29T15:49:01Z</time>
      </trkpt>
      <trkpt lat="43.26694" lon="-0.40937">
        <ele>235.18</ele>
        <time>2013-01-29T15:49:13Z</time>
      </trkpt>
      <trkpt lat="43.26701" lon="-0.40952">
        <ele>234.22</ele>
        <time>2013-01-29T15:49:23Z</time>
      </trkpt>
      <trkpt lat="43.26706" lon="-0.40963">
        <ele>231.81</ele>
        <time>2013-01-29T15:49:33Z</time>
      </trkpt>
      <trkpt lat="43.26712" lon="-0.40982">
        <ele>229.89</ele>
        <time>2013-01-29T15:49:44Z</time>
      </trkpt>
      <trkpt lat="43.2672" lon="-0.40996">
        <ele>227.97</ele>
        <time>2013-01-29T15:49:55Z</time>
      </trkpt>
      <trkpt lat="43.26726" lon="-0.41009">
        <ele>226.53</ele>
        <time>2013-01-29T15:50:06Z</time>
      </trkpt>
      <trkpt lat="43.26732" lon="-0.41026">
        <ele>225.09</ele>
        <time>2013-01-29T15:50:17Z</time>
      </trkpt>
      <trkpt lat="43.26738" lon="-0.41041">
        <ele>223.16</ele>
        <time>2013-01-29T15:50:27Z</time>
      </trkpt>
      <trkpt lat="43.26741" lon="-0.41052">
        <ele>221.24</ele>
        <time>2013-01-29T15:50:39Z</time>
      </trkpt>
      <trkpt lat="43.26745" lon="-0.41068">
        <ele>218.84</ele>
        <time>2013-01-29T15:50:50Z</time>
      </trkpt>
      <trkpt lat="43.26746" lon="-0.41085">
        <ele>216.91</ele>
        <time>2013-01-29T15:51:01Z</time>
      </trkpt>
      <trkpt lat="43.26755" lon="-0.41096">
        <ele>215.47</ele>
        <time>2013-01-29T15:51:12Z</time>
      </trkpt>
      <trkpt lat="43.26759" lon="-0.4111">
        <ele>213.55</ele>
        <time>2013-01-29T15:51:22Z</time>
      </trkpt>
      <trkpt lat="43.26762" lon="-0.41124">
        <ele>212.11</ele>
        <time>2013-01-29T15:51:31Z</time>
      </trkpt>
      <trkpt lat="43.26765" lon="-0.41139">
        <ele>211.15</ele>
        <time>2013-01-29T15:51:40Z</time>
      </trkpt>
      <trkpt lat="43.26766" lon="-0.41156">
        <ele>210.19</ele>
        <time>2013-01-29T15:51:50Z</time>
      </trkpt>
      <trkpt lat="43.26766" lon="-0.4117">
        <ele>208.74</ele>
        <time>2013-01-29T15:52:06Z</time>
      </trkpt>
      <trkpt lat="43.26767" lon="-0.4118">
        <ele>208.74</ele>
        <time>2013-01-29T15:52:25Z</time>
      </trkpt>
      <trkpt lat="43.26767" lon="-0.41191">
        <ele>208.26</ele>
        <time>2013-01-29T15:53:05Z</time>
      </trkpt>
      <trkpt lat="43.26765" lon="-0.41204">
        <ele>207.78</ele>
        <time>2013-01-29T15:53:16Z</time>
      </trkpt>
      <trkpt lat="43.26765" lon="-0.41217">
        <ele>207.3</ele>
        <time>2013-01-29T15:53:28Z</time>
      </trkpt>
      <trkpt lat="43.26763" lon="-0.41232">
        <ele>207.78</ele>
        <time>2013-01-29T15:53:47Z</time>
      </trkpt>
      <trkpt lat="43.26759" lon="-0.41236">
        <ele>208.74</ele>
        <time>2013-01-29T15:55:01Z</time>
      </trkpt>
      <trkpt lat="43.26753" lon="-0.41249">
        <ele>208.74</ele>
        <time>2013-01-29T15:55:10Z</time>
      </trkpt>
      <trkpt lat="43.26748" lon="-0.4126">
        <ele>209.22</ele>
        <time>2013-01-29T15:55:19Z</time>
      </trkpt>
      <trkpt lat="43.26743" lon="-0.41272">
        <ele>210.67</ele>
        <time>2013-01-29T15:55:28Z</time>
      </trkpt>
      <trkpt lat="43.26738" lon="-0.41283">
        <ele>211.15</ele>
        <time>2013-01-29T15:55:37Z</time>
      </trkpt>
      <trkpt lat="43.26734" lon="-0.41295">
        <ele>211.63</ele>
        <time>2013-01-29T15:55:47Z</time>
      </trkpt>
      <trkpt lat="43.26729" lon="-0.41305">
        <ele>212.59</ele>
        <time>2013-01-29T15:55:56Z</time>
      </trkpt>
      <trkpt lat="43.26724" lon="-0.41315">
        <ele>214.03</ele>
        <time>2013-01-29T15:56:06Z</time>
      </trkpt>
      <trkpt lat="43.26719" lon="-0.41327">
        <ele>214.99</ele>
        <time>2013-01-29T15:56:15Z</time>
      </trkpt>
      <trkpt lat="43.26714" lon="-0.41338">
        <ele>215.95</ele>
        <time>2013-01-29T15:56:24Z</time>
      </trkpt>
      <trkpt lat="43.26709" lon="-0.41349">
        <ele>216.91</ele>
        <time>2013-01-29T15:56:33Z</time>
      </trkpt>
      <trkpt lat="43.26704" lon="-0.41359">
        <ele>217.88</ele>
        <time>2013-01-29T15:56:42Z</time>
      </trkpt>
      <trkpt lat="43.26698" lon="-0.4137">
        <ele>218.84</ele>
        <time>2013-01-29T15:56:52Z</time>
      </trkpt>
      <trkpt lat="43.26694" lon="-0.41381">
        <ele>220.76</ele>
        <time>2013-01-29T15:57:03Z</time>
      </trkpt>
      <trkpt lat="43.26692" lon="-0.41393">
        <ele>223.64</ele>
        <time>2013-01-29T15:57:15Z</time>
      </trkpt>
      <trkpt lat="43.26697" lon="-0.41407">
        <ele>224.61</ele>
        <time>2013-01-29T15:57:27Z</time>
      </trkpt>
      <trkpt lat="43.26708" lon="-0.41417">
        <ele>226.53</ele>
        <time>2013-01-29T15:57:40Z</time>
      </trkpt>
      <trkpt lat="43.2672" lon="-0.41425">
        <ele>227.49</ele>
        <time>2013-01-29T15:57:51Z</time>
      </trkpt>
      <trkpt lat="43.26731" lon="-0.41427">
        <ele>229.41</ele>
        <time>2013-01-29T15:58:04Z</time>
      </trkpt>
      <trkpt lat="43.26743" lon="-0.41427">
        <ele>231.81</ele>
        <time>2013-01-29T15:58:17Z</time>
      </trkpt>
      <trkpt lat="43.26754" lon="-0.41427">
        <ele>232.78</ele>
        <time>2013-01-29T15:58:29Z</time>
      </trkpt>
      <trkpt lat="43.26764" lon="-0.41428">
        <ele>234.7</ele>
        <time>2013-01-29T15:58:41Z</time>
      </trkpt>
      <trkpt lat="43.26774" lon="-0.41436">
        <ele>235.66</ele>
        <time>2013-01-29T15:58:52Z</time>
      </trkpt>
      <trkpt lat="43.26775" lon="-0.4145">
        <ele>237.58</ele>
        <time>2013-01-29T15:59:04Z</time>
      </trkpt>
      <trkpt lat="43.26775" lon="-0.4146">
        <ele>239.51</ele>
        <time>2013-01-29T15:59:17Z</time>
      </trkpt>
      <trkpt lat="43.26773" lon="-0.41471">
        <ele>240.95</ele>
        <time>2013-01-29T15:59:30Z</time>
      </trkpt>
      <trkpt lat="43.26771" lon="-0.41483">
        <ele>242.39</ele>
        <time>2013-01-29T15:59:41Z</time>
      </trkpt>
      <trkpt lat="43.2677" lon="-0.41496">
        <ele>243.83</ele>
        <time>2013-01-29T15:59:53Z</time>
      </trkpt>
      <trkpt lat="43.26767" lon="-0.41508">
        <ele>245.27</ele>
        <time>2013-01-29T16:00:04Z</time>
      </trkpt>
      <trkpt lat="43.26765" lon="-0.41521">
        <ele>247.2</ele>
        <time>2013-01-29T16:00:16Z</time>
      </trkpt>
      <trkpt lat="43.26764" lon="-0.41535">
        <ele>249.12</ele>
        <time>2013-01-29T16:00:27Z</time>
      </trkpt>
      <trkpt lat="43.26763" lon="-0.41547">
        <ele>251.04</ele>
        <time>2013-01-29T16:00:38Z</time>
      </trkpt>
      <trkpt lat="43.2676" lon="-0.41559">
        <ele>252.48</ele>
        <time>2013-01-29T16:00:49Z</time>
      </trkpt>
      <trkpt lat="43.26759" lon="-0.41571">
        <ele>254.89</ele>
        <time>2013-01-29T16:01:00Z</time>
      </trkpt>
      <trkpt lat="43.26757" lon="-0.41582">
        <ele>256.81</ele>
        <time>2013-01-29T16:01:11Z</time>
      </trkpt>
      <trkpt lat="43.26757" lon="-0.41594">
        <ele>258.73</ele>
        <time>2013-01-29T16:01:23Z</time>
      </trkpt>
      <trkpt lat="43.26755" lon="-0.41606">
        <ele>261.14</ele>
        <time>2013-01-29T16:01:35Z</time>
      </trkpt>
      <trkpt lat="43.2675" lon="-0.41613">
        <ele>263.54</ele>
        <time>2013-01-29T16:02:15Z</time>
      </trkpt>
      <trkpt lat="43.26743" lon="-0.4162">
        <ele>264.98</ele>
        <time>2013-01-29T16:02:29Z</time>
      </trkpt>
      <trkpt lat="43.26735" lon="-0.41625">
        <ele>266.9</ele>
        <time>2013-01-29T16:02:42Z</time>
      </trkpt>
      <trkpt lat="43.26726" lon="-0.4163">
        <ele>268.83</ele>
        <time>2013-01-29T16:02:54Z</time>
      </trkpt>
      <trkpt lat="43.26717" lon="-0.41635">
        <ele>271.23</ele>
        <time>2013-01-29T16:03:07Z</time>
      </trkpt>
      <trkpt lat="43.26709" lon="-0.4164">
        <ele>273.15</ele>
        <time>2013-01-29T16:03:20Z</time>
      </trkpt>
      <trkpt lat="43.26699" lon="-0.41646">
        <ele>276.04</ele>
        <time>2013-01-29T16:03:35Z</time>
      </trkpt>
      <trkpt lat="43.26696" lon="-0.41656">
        <ele>277.96</ele>
        <time>2013-01-29T16:03:48Z</time>
      </trkpt>
      <trkpt lat="43.26697" lon="-0.41669">
        <ele>279.4</ele>
        <time>2013-01-29T16:04:02Z</time>
      </trkpt>
      <trkpt lat="43.26699" lon="-0.41679">
        <ele>281.8</ele>
        <time>2013-01-29T16:04:40Z</time>
      </trkpt>
      <trkpt lat="43.26703" lon="-0.41692">
        <ele>283.25</ele>
        <time>2013-01-29T16:04:54Z</time>
      </trkpt>
      <trkpt lat="43.26705" lon="-0.41704">
        <ele>285.17</ele>
        <time>2013-01-29T16:05:06Z</time>
      </trkpt>
      <trkpt lat="43.26707" lon="-0.41718">
        <ele>286.61</ele>
        <time>2013-01-29T16:05:18Z</time>
      </trkpt>
      <trkpt lat="43.2671" lon="-0.4173">
        <ele>288.53</ele>
        <time>2013-01-29T16:05:29Z</time>
      </trkpt>
      <trkpt lat="43.26714" lon="-0.41743">
        <ele>289.97</ele>
        <time>2013-01-29T16:05:41Z</time>
      </trkpt>
      <trkpt lat="43.26717" lon="-0.41755">
        <ele>291.42</ele>
        <time>2013-01-29T16:05:52Z</time>
      </trkpt>
      <trkpt lat="43.2672" lon="-0.41767">
        <ele>292.86</ele>
        <time>2013-01-29T16:06:03Z</time>
      </trkpt>
      <trkpt lat="43.26724" lon="-0.4178">
        <ele>294.3</ele>
        <time>2013-01-29T16:06:14Z</time>
      </trkpt>
      <trkpt lat="43.26728" lon="-0.41792">
        <ele>295.26</ele>
        <time>2013-01-29T16:06:25Z</time>
      </trkpt>
      <trkpt lat="43.26732" lon="-0.41804">
        <ele>296.22</ele>
        <time>2013-01-29T16:06:36Z</time>
      </trkpt>
      <trkpt lat="43.26734" lon="-0.41816">
        <ele>297.18</ele>
        <time>2013-01-29T16:06:47Z</time>
      </trkpt>
      <trkpt lat="43.26738" lon="-0.41828">
        <ele>299.11</ele>
        <time>2013-01-29T16:06:58Z</time>
      </trkpt>
      <trkpt lat="43.26741" lon="-0.4184">
        <ele>300.07</ele>
        <time>2013-01-29T16:07:09Z</time>
      </trkpt>
      <trkpt lat="43.26745" lon="-0.41852">
        <ele>301.51</ele>
        <time>2013-01-29T16:07:20Z</time>
      </trkpt>
      <trkpt lat="43.26749" lon="-0.41864">
        <ele>302.95</ele>
        <time>2013-01-29T16:07:32Z</time>
      </trkpt>
      <trkpt lat="43.26752" lon="-0.41876">
        <ele>303.91</ele>
        <time>2013-01-29T16:07:43Z</time>
      </trkpt>
      <trkpt lat="43.26755" lon="-0.41888">
        <ele>305.84</ele>
        <time>2013-01-29T16:07:54Z</time>
      </trkpt>
      <trkpt lat="43.26759" lon="-0.41901">
        <ele>306.8</ele>
        <time>2013-01-29T16:08:06Z</time>
      </trkpt>
      <trkpt lat="43.26762" lon="-0.41913">
        <ele>308.72</ele>
        <time>2013-01-29T16:08:17Z</time>
      </trkpt>
      <trkpt lat="43.26766" lon="-0.41925">
        <ele>310.16</ele>
        <time>2013-01-29T16:08:29Z</time>
      </trkpt>
      <trkpt lat="43.2677" lon="-0.41933">
        <ele>311.6</ele>
        <time>2013-01-29T16:09:21Z</time>
      </trkpt>
      <trkpt lat="43.26774" lon="-0.41945">
        <ele>313.05</ele>
        <time>2013-01-29T16:09:52Z</time>
      </trkpt>
      <trkpt lat="43.26777" lon="-0.41957">
        <ele>313.53</ele>
        <time>2013-01-29T16:10:02Z</time>
      </trkpt>
      <trkpt lat="43.26781" lon="-0.4197">
        <ele>315.45</ele>
        <time>2013-01-29T16:10:12Z</time>
      </trkpt>
      <trkpt lat="43.26783" lon="-0.41984">
        <ele>316.41</ele>
        <time>2013-01-29T16:10:23Z</time>
      </trkpt>
      <trkpt lat="43.26785" lon="-0.41998">
        <ele>317.85</ele>
        <time>2013-01-29T16:10:33Z</time>
      </trkpt>
      <trkpt lat="43.2679" lon="-0.42011">
        <ele>318.33</ele>
        <time>2013-01-29T16:10:43Z</time>
      </trkpt>
      <trkpt lat="43.26794" lon="-0.42022">
        <ele>319.3</ele>
        <time>2013-01-29T16:10:52Z</time>
      </trkpt>
      <trkpt lat="43.26798" lon="-0.42033">
        <ele>319.78</ele>
        <time>2013-01-29T16:11:02Z</time>
      </trkpt>
      <trkpt lat="43.26802" lon="-0.42043">
        <ele>320.26</ele>
        <time>2013-01-29T16:11:13Z</time>
      </trkpt>
      <trkpt lat="43.26803" lon="-0.42045">
        <ele>321.22</ele>
        <time>2013-01-29T16:12:37Z</time>
      </trkpt>
      <trkpt lat="43.26798" lon="-0.42057">
        <ele>321.22</ele>
        <time>2013-01-29T16:12:49Z</time>
      </trkpt>
      <trkpt lat="43.26794" lon="-0.42065">
        <ele>322.66</ele>
        <time>2013-01-29T16:12:58Z</time>
      </trkpt>
      <trkpt lat="43.26788" lon="-0.42075">
        <ele>322.66</ele>
        <time>2013-01-29T16:13:08Z</time>
      </trkpt>
      <trkpt lat="43.26782" lon="-0.42084">
        <ele>323.14</ele>
        <time>2013-01-29T16:13:18Z</time>
      </trkpt>
      <trkpt lat="43.26776" lon="-0.42093">
        <ele>323.14</ele>
        <time>2013-01-29T16:13:27Z</time>
      </trkpt>
      <trkpt lat="43.26769" lon="-0.42103">
        <ele>323.62</ele>
        <time>2013-01-29T16:13:36Z</time>
      </trkpt>
      <trkpt lat="43.26764" lon="-0.42113">
        <ele>323.14</ele>
        <time>2013-01-29T16:13:44Z</time>
      </trkpt>
      <trkpt lat="43.26757" lon="-0.42123">
        <ele>323.14</ele>
        <time>2013-01-29T16:13:53Z</time>
      </trkpt>
      <trkpt lat="43.26752" lon="-0.42132">
        <ele>322.18</ele>
        <time>2013-01-29T16:14:02Z</time>
      </trkpt>
      <trkpt lat="43.26745" lon="-0.42141">
        <ele>322.66</ele>
        <time>2013-01-29T16:14:11Z</time>
      </trkpt>
      <trkpt lat="43.26737" lon="-0.42147">
        <ele>321.7</ele>
        <time>2013-01-29T16:14:21Z</time>
      </trkpt>
      <trkpt lat="43.26729" lon="-0.4215">
        <ele>321.7</ele>
        <time>2013-01-29T16:14:32Z</time>
      </trkpt>
      <trkpt lat="43.2672" lon="-0.42154">
        <ele>321.22</ele>
        <time>2013-01-29T16:14:42Z</time>
      </trkpt>
      <trkpt lat="43.2671" lon="-0.42158">
        <ele>321.7</ele>
        <time>2013-01-29T16:14:50Z</time>
      </trkpt>
      <trkpt lat="43.26701" lon="-0.42161">
        <ele>320.74</ele>
        <time>2013-01-29T16:14:58Z</time>
      </trkpt>
      <trkpt lat="43.26692" lon="-0.42165">
        <ele>320.74</ele>
        <time>2013-01-29T16:15:07Z</time>
      </trkpt>
      <trkpt lat="43.26683" lon="-0.42169">
        <ele>321.22</ele>
        <time>2013-01-29T16:15:16Z</time>
      </trkpt>
      <trkpt lat="43.26673" lon="-0.42171">
        <ele>321.7</ele>
        <time>2013-01-29T16:15:24Z</time>
      </trkpt>
      <trkpt lat="43.26664" lon="-0.42175">
        <ele>321.22</ele>
        <time>2013-01-29T16:15:33Z</time>
      </trkpt>
      <trkpt lat="43.26655" lon="-0.42179">
        <ele>322.18</ele>
        <time>2013-01-29T16:15:42Z</time>
      </trkpt>
      <trkpt lat="43.26646" lon="-0.42183">
        <ele>322.66</ele>
        <time>2013-01-29T16:15:51Z</time>
      </trkpt>
      <trkpt lat="43.26638" lon="-0.42187">
        <ele>323.62</ele>
        <time>2013-01-29T16:16:00Z</time>
      </trkpt>
      <trkpt lat="43.26628" lon="-0.4219">
        <ele>323.62</ele>
        <time>2013-01-29T16:16:09Z</time>
      </trkpt>
      <trkpt lat="43.26618" lon="-0.42193">
        <ele>323.62</ele>
        <time>2013-01-29T16:16:18Z</time>
      </trkpt>
      <trkpt lat="43.26609" lon="-0.42197">
        <ele>324.1</ele>
        <time>2013-01-29T16:16:27Z</time>
      </trkpt>
      <trkpt lat="43.26601" lon="-0.42201">
        <ele>324.1</ele>
        <time>2013-01-29T16:16:35Z</time>
      </trkpt>
      <trkpt lat="43.26591" lon="-0.42204">
        <ele>324.1</ele>
        <time>2013-01-29T16:16:43Z</time>
      </trkpt>
      <trkpt lat="43.26583" lon="-0.42207">
        <ele>324.1</ele>
        <time>2013-01-29T16:16:51Z</time>
      </trkpt>
      <trkpt lat="43.26574" lon="-0.42212">
        <ele>324.58</ele>
        <time>2013-01-29T16:17:00Z</time>
      </trkpt>
      <trkpt lat="43.26565" lon="-0.42215">
        <ele>324.1</ele>
        <time>2013-01-29T16:17:08Z</time>
      </trkpt>
      <trkpt lat="43.26556" lon="-0.42219">
        <ele>325.06</ele>
        <time>2013-01-29T16:17:17Z</time>
      </trkpt>
      <trkpt lat="43.26545" lon="-0.42224">
        <ele>325.06</ele>
        <time>2013-01-29T16:17:26Z</time>
      </trkpt>
      <trkpt lat="43.26536" lon="-0.42227">
        <ele>325.06</ele>
        <time>2013-01-29T16:17:35Z</time>
      </trkpt>
      <trkpt lat="43.26527" lon="-0.4223">
        <ele>325.54</ele>
        <time>2013-01-29T16:17:44Z</time>
      </trkpt>
      <trkpt lat="43.26518" lon="-0.42232">
        <ele>326.5</ele>
        <time>2013-01-29T16:17:53Z</time>
      </trkpt>
      <trkpt lat="43.26509" lon="-0.42238">
        <ele>326.99</ele>
        <time>2013-01-29T16:18:03Z</time>
      </trkpt>
      <trkpt lat="43.26499" lon="-0.42241">
        <ele>328.43</ele>
        <time>2013-01-29T16:18:13Z</time>
      </trkpt>
      <trkpt lat="43.26489" lon="-0.42248">
        <ele>329.39</ele>
        <time>2013-01-29T16:18:25Z</time>
      </trkpt>
      <trkpt lat="43.2648" lon="-0.42255">
        <ele>330.35</ele>
        <time>2013-01-29T16:18:35Z</time>
      </trkpt>
      <trkpt lat="43.26473" lon="-0.42262">
        <ele>330.83</ele>
        <time>2013-01-29T16:18:44Z</time>
      </trkpt>
      <trkpt lat="43.26464" lon="-0.42269">
        <ele>330.35</ele>
        <time>2013-01-29T16:18:53Z</time>
      </trkpt>
      <trkpt lat="43.26457" lon="-0.42277">
        <ele>329.87</ele>
        <time>2013-01-29T16:19:02Z</time>
      </trkpt>
      <trkpt lat="43.26448" lon="-0.42284">
        <ele>330.35</ele>
        <time>2013-01-29T16:19:10Z</time>
      </trkpt>
      <trkpt lat="43.2644" lon="-0.42291">
        <ele>329.87</ele>
        <time>2013-01-29T16:19:18Z</time>
      </trkpt>
      <trkpt lat="43.26432" lon="-0.42298">
        <ele>329.87</ele>
        <time>2013-01-29T16:19:26Z</time>
      </trkpt>
      <trkpt lat="43.26423" lon="-0.42305">
        <ele>329.39</ele>
        <time>2013-01-29T16:19:35Z</time>
      </trkpt>
      <trkpt lat="43.26414" lon="-0.4231">
        <ele>329.39</ele>
        <time>2013-01-29T16:19:44Z</time>
      </trkpt>
      <trkpt lat="43.26405" lon="-0.42316">
        <ele>329.39</ele>
        <time>2013-01-29T16:19:52Z</time>
      </trkpt>
      <trkpt lat="43.26397" lon="-0.42322">
        <ele>329.39</ele>
        <time>2013-01-29T16:20:00Z</time>
      </trkpt>
      <trkpt lat="43.2639" lon="-0.4233">
        <ele>329.87</ele>
        <time>2013-01-29T16:20:09Z</time>
      </trkpt>
      <trkpt lat="43.26381" lon="-0.42336">
        <ele>330.35</ele>
        <time>2013-01-29T16:20:18Z</time>
      </trkpt>
      <trkpt lat="43.26373" lon="-0.42343">
        <ele>329.87</ele>
        <time>2013-01-29T16:20:27Z</time>
      </trkpt>
      <trkpt lat="43.26364" lon="-0.42349">
        <ele>330.35</ele>
        <time>2013-01-29T16:20:36Z</time>
      </trkpt>
      <trkpt lat="43.26356" lon="-0.42355">
        <ele>331.31</ele>
        <time>2013-01-29T16:20:45Z</time>
      </trkpt>
      <trkpt lat="43.26346" lon="-0.42361">
        <ele>331.79</ele>
        <time>2013-01-29T16:20:55Z</time>
      </trkpt>
      <trkpt lat="43.26337" lon="-0.42365">
        <ele>332.27</ele>
        <time>2013-01-29T16:21:06Z</time>
      </trkpt>
      <trkpt lat="43.26337" lon="-0.42359">
        <ele>332.27</ele>
        <time>2013-01-29T16:21:57Z</time>
      </trkpt>
      <trkpt lat="43.26326" lon="-0.4235">
        <ele>332.27</ele>
        <time>2013-01-29T16:22:05Z</time>
      </trkpt>
      <trkpt lat="43.26318" lon="-0.42342">
        <ele>331.79</ele>
        <time>2013-01-29T16:22:12Z</time>
      </trkpt>
      <trkpt lat="43.2631" lon="-0.42335">
        <ele>331.31</ele>
        <time>2013-01-29T16:22:19Z</time>
      </trkpt>
      <trkpt lat="43.26301" lon="-0.42329">
        <ele>330.83</ele>
        <time>2013-01-29T16:22:27Z</time>
      </trkpt>
      <trkpt lat="43.26294" lon="-0.42324">
        <ele>329.39</ele>
        <time>2013-01-29T16:22:35Z</time>
      </trkpt>
      <trkpt lat="43.26285" lon="-0.42317">
        <ele>328.43</ele>
        <time>2013-01-29T16:22:43Z</time>
      </trkpt>
      <trkpt lat="43.26277" lon="-0.42312">
        <ele>327.95</ele>
        <time>2013-01-29T16:22:51Z</time>
      </trkpt>
      <trkpt lat="43.26268" lon="-0.42305">
        <ele>326.99</ele>
        <time>2013-01-29T16:22:59Z</time>
      </trkpt>
      <trkpt lat="43.26261" lon="-0.42297">
        <ele>326.5</ele>
        <time>2013-01-29T16:23:08Z</time>
      </trkpt>
      <trkpt lat="43.26251" lon="-0.42294">
        <ele>325.06</ele>
        <time>2013-01-29T16:23:17Z</time>
      </trkpt>
      <trkpt lat="43.26242" lon="-0.42294">
        <ele>323.62</ele>
        <time>2013-01-29T16:23:26Z</time>
      </trkpt>
      <trkpt lat="43.26232" lon="-0.42293">
        <ele>323.14</ele>
        <time>2013-01-29T16:23:34Z</time>
      </trkpt>
      <trkpt lat="43.26223" lon="-0.42292">
        <ele>322.18</ele>
        <time>2013-01-29T16:23:42Z</time>
      </trkpt>
      <trkpt lat="43.26214" lon="-0.42291">
        <ele>322.18</ele>
        <time>2013-01-29T16:23:50Z</time>
      </trkpt>
      <trkpt lat="43.26205" lon="-0.42292">
        <ele>320.74</ele>
        <time>2013-01-29T16:23:58Z</time>
      </trkpt>
      <trkpt lat="43.26196" lon="-0.42289">
        <ele>320.74</ele>
        <time>2013-01-29T16:24:06Z</time>
      </trkpt>
      <trkpt lat="43.26187" lon="-0.42289">
        <ele>320.74</ele>
        <time>2013-01-29T16:24:14Z</time>
      </trkpt>
      <trkpt lat="43.26178" lon="-0.42289">
        <ele>320.26</ele>
        <time>2013-01-29T16:24:23Z</time>
      </trkpt>
      <trkpt lat="43.26168" lon="-0.42289">
        <ele>319.78</ele>
        <time>2013-01-29T16:24:32Z</time>
      </trkpt>
      <trkpt lat="43.26158" lon="-0.42288">
        <ele>319.78</ele>
        <time>2013-01-29T16:24:41Z</time>
      </trkpt>
      <trkpt lat="43.26149" lon="-0.42287">
        <ele>318.81</ele>
        <time>2013-01-29T16:24:49Z</time>
      </trkpt>
      <trkpt lat="43.26138" lon="-0.42286">
        <ele>318.81</ele>
        <time>2013-01-29T16:24:58Z</time>
      </trkpt>
      <trkpt lat="43.26129" lon="-0.42282">
        <ele>318.81</ele>
        <time>2013-01-29T16:25:07Z</time>
      </trkpt>
      <trkpt lat="43.2612" lon="-0.42275">
        <ele>318.81</ele>
        <time>2013-01-29T16:25:15Z</time>
      </trkpt>
      <trkpt lat="43.26112" lon="-0.42265">
        <ele>318.81</ele>
        <time>2013-01-29T16:25:24Z</time>
      </trkpt>
      <trkpt lat="43.26105" lon="-0.42255">
        <ele>319.3</ele>
        <time>2013-01-29T16:25:34Z</time>
      </trkpt>
      <trkpt lat="43.26097" lon="-0.42249">
        <ele>320.26</ele>
        <time>2013-01-29T16:25:44Z</time>
      </trkpt>
      <trkpt lat="43.2609" lon="-0.42241">
        <ele>320.26</ele>
        <time>2013-01-29T16:25:57Z</time>
      </trkpt>
      <trkpt lat="43.2609" lon="-0.42241">
        <ele>321.22</ele>
        <time>2013-01-29T16:26:36Z</time>
      </trkpt>
    </trkseg>
  </trk>
</gpx>